<?xml version='1.0' encoding='UTF-8'?><gpx version="1.1" creator="JPX - https://github.com/jenetics/jpx" xmlns="http://www.topografix.com/GPX/1/1"><trk><trkseg><trkpt lat="43.81671047630816" lon="12.84845838483859"><ele>183.0</ele><time>2026-04-25T06:00:51.002Z</time></trkpt><trkpt lat="43.81666050374697" lon="12.848542195574234"><ele>182.0</ele><time>2026-04-25T06:01:48.667Z</time></trkpt><trkpt lat="43.81659547788631" lon="12.848593150253253"><ele>181.0</ele><time>2026-04-25T06:01:54.366Z</time></trkpt><trkpt lat="43.816536079086745" lon="12.848622612359538"><ele>180.0</ele><time>2026-04-25T06:02:00.067Z</time></trkpt><trkpt lat="43.81647812733678" lon="12.848658367620883"><ele>179.0</ele><time>2026-04-25T06:02:04.004Z</time></trkpt><trkpt lat="43.8164162061575" lon="12.848696512999908"><ele>178.0</ele><time>2026-04-25T06:02:09.004Z</time></trkpt><trkpt lat="43.81635567799302" lon="12.848721791411057"><ele>177.0</ele><time>2026-04-25T06:02:14.003Z</time></trkpt><trkpt lat="43.81628788555806" lon="12.848746751400958"><ele>177.0</ele><time>2026-04-25T06:02:19.003Z</time></trkpt><trkpt lat="43.81621472564482" lon="12.84875007465353"><ele>177.0</ele><time>2026-04-25T06:02:24.003Z</time></trkpt><trkpt lat="43.816145064994025" lon="12.848766388733042"><ele>177.0</ele><time>2026-04-25T06:02:29.003Z</time></trkpt><trkpt lat="43.81607823537896" lon="12.84878226730742"><ele>177.0</ele><time>2026-04-25T06:02:34.003Z</time></trkpt><trkpt lat="43.81600115435312" lon="12.848788257224433"><ele>177.0</ele><time>2026-04-25T06:02:39.003Z</time></trkpt><trkpt lat="43.815939184584096" lon="12.848807358226402"><ele>177.0</ele><time>2026-04-25T06:02:43.003Z</time></trkpt><trkpt lat="43.81587387331596" lon="12.84883152727687"><ele>177.0</ele><time>2026-04-25T06:02:48.003Z</time></trkpt><trkpt lat="43.815808976507086" lon="12.848847613162219"><ele>177.85714285714286</ele><time>2026-04-25T06:02:54.003Z</time></trkpt><trkpt lat="43.81574175934921" lon="12.848837033300011"><ele>178.7142857142857</ele><time>2026-04-25T06:02:58.003Z</time></trkpt><trkpt lat="43.815665814228744" lon="12.848846465182763"><ele>179.57142857142856</ele><time>2026-04-25T06:03:03.003Z</time></trkpt><trkpt lat="43.81559835532408" lon="12.848859311603142"><ele>180.42857142857144</ele><time>2026-04-25T06:03:08.003Z</time></trkpt><trkpt lat="43.81552191809851" lon="12.848880047154276"><ele>181.28571428571428</ele><time>2026-04-25T06:03:14.003Z</time></trkpt><trkpt lat="43.81545296191" lon="12.84890150434318"><ele>182.14285714285714</ele><time>2026-04-25T06:03:19.003Z</time></trkpt><trkpt lat="43.81539036252941" lon="12.84891410722816"><ele>183.0</ele><time>2026-04-25T06:03:23.003Z</time></trkpt><trkpt lat="43.81531632928057" lon="12.848932138488218"><ele>183.0</ele><time>2026-04-25T06:03:28.003Z</time></trkpt><trkpt lat="43.81525047598038" lon="12.848962035205183"><ele>183.0</ele><time>2026-04-25T06:03:33.003Z</time></trkpt><trkpt lat="43.81518478301967" lon="12.84900072734026"><ele>183.0</ele><time>2026-04-25T06:03:38.003Z</time></trkpt><trkpt lat="43.815116551397814" lon="12.84902075217455"><ele>183.0</ele><time>2026-04-25T06:03:43.003Z</time></trkpt><trkpt lat="43.81504916581507" lon="12.849049054839456"><ele>183.0</ele><time>2026-04-25T06:03:48.003Z</time></trkpt><trkpt lat="43.814985345279354" lon="12.84907310283329"><ele>183.0</ele><time>2026-04-25T06:03:53.003Z</time></trkpt><trkpt lat="43.8149168253615" lon="12.849097464319843"><ele>183.0</ele><time>2026-04-25T06:03:58.004Z</time></trkpt><trkpt lat="43.814851150337" lon="12.849109050529893"><ele>183.71428571428572</ele><time>2026-04-25T06:04:03.004Z</time></trkpt><trkpt lat="43.81477452691473" lon="12.849120169366213"><ele>184.42857142857144</ele><time>2026-04-25T06:04:09.005Z</time></trkpt><trkpt lat="43.81469333068929" lon="12.849120153006835"><ele>185.14285714285714</ele><time>2026-04-25T06:04:15.005Z</time></trkpt><trkpt lat="43.8146232325175" lon="12.849103767631382"><ele>185.85714285714286</ele><time>2026-04-25T06:04:20.005Z</time></trkpt><trkpt lat="43.81455698053033" lon="12.849068001038507"><ele>186.57142857142856</ele><time>2026-04-25T06:04:25.005Z</time></trkpt><trkpt lat="43.814496854203945" lon="12.849037783203574"><ele>187.28571428571428</ele><time>2026-04-25T06:04:30.005Z</time></trkpt><trkpt lat="43.814430646581414" lon="12.848989125250874"><ele>188.0</ele><time>2026-04-25T06:04:36.005Z</time></trkpt><trkpt lat="43.81437253503339" lon="12.848942256210142"><ele>188.28571428571428</ele><time>2026-04-25T06:04:41.005Z</time></trkpt><trkpt lat="43.81431919587063" lon="12.848879909661422"><ele>188.57142857142856</ele><time>2026-04-25T06:04:46.005Z</time></trkpt><trkpt lat="43.814266016415985" lon="12.84881447125942"><ele>188.85714285714286</ele><time>2026-04-25T06:04:51.005Z</time></trkpt><trkpt lat="43.81420667600986" lon="12.848749129650546"><ele>189.14285714285714</ele><time>2026-04-25T06:04:56.005Z</time></trkpt><trkpt lat="43.8141516280507" lon="12.848684585450668"><ele>189.42857142857144</ele><time>2026-04-25T06:05:01.005Z</time></trkpt><trkpt lat="43.81408800530042" lon="12.848637423828068"><ele>189.71428571428572</ele><time>2026-04-25T06:05:06.005Z</time></trkpt><trkpt lat="43.81402139717225" lon="12.848624124696174"><ele>190.0</ele><time>2026-04-25T06:05:11.005Z</time></trkpt><trkpt lat="43.813948915705716" lon="12.84864156630639"><ele>190.0</ele><time>2026-04-25T06:05:17.004Z</time></trkpt><trkpt lat="43.813876855367205" lon="12.84866472133237"><ele>190.0</ele><time>2026-04-25T06:05:22.004Z</time></trkpt><trkpt lat="43.81379687960751" lon="12.848698971148272"><ele>190.0</ele><time>2026-04-25T06:05:27.004Z</time></trkpt><trkpt lat="43.81373368421155" lon="12.848711998356444"><ele>190.0</ele><time>2026-04-25T06:05:31.004Z</time></trkpt><trkpt lat="43.81365649384504" lon="12.848735901901223"><ele>190.0</ele><time>2026-04-25T06:05:36.004Z</time></trkpt><trkpt lat="43.81359549073422" lon="12.848757996563851"><ele>190.0</ele><time>2026-04-25T06:05:40.004Z</time></trkpt><trkpt lat="43.813524279536566" lon="12.848787113217698"><ele>190.0</ele><time>2026-04-25T06:05:44.004Z</time></trkpt><trkpt lat="43.813461846631924" lon="12.848801759764282"><ele>188.85714285714286</ele><time>2026-04-25T06:05:48.004Z</time></trkpt><trkpt lat="43.813396071677076" lon="12.84883305128898"><ele>187.71428571428572</ele><time>2026-04-25T06:05:53.004Z</time></trkpt><trkpt lat="43.813329994508635" lon="12.848874249709828"><ele>186.57142857142856</ele><time>2026-04-25T06:05:58.004Z</time></trkpt><trkpt lat="43.81326196913233" lon="12.848905985292523"><ele>185.42857142857144</ele><time>2026-04-25T06:06:03.006Z</time></trkpt><trkpt lat="43.81319921358046" lon="12.848933574606745"><ele>184.28571428571428</ele><time>2026-04-25T06:06:07.006Z</time></trkpt><trkpt lat="43.813125320476345" lon="12.848964852591179"><ele>183.14285714285714</ele><time>2026-04-25T06:06:12.006Z</time></trkpt><trkpt lat="43.8130517489966" lon="12.848984973719915"><ele>182.0</ele><time>2026-04-25T06:06:17.007Z</time></trkpt><trkpt lat="43.812986020926" lon="12.848997567324947"><ele>182.0</ele><time>2026-04-25T06:06:22.007Z</time></trkpt><trkpt lat="43.81290762354781" lon="12.849004784531246"><ele>182.0</ele><time>2026-04-25T06:06:27.007Z</time></trkpt><trkpt lat="43.81283150637999" lon="12.849007846889142"><ele>182.0</ele><time>2026-04-25T06:06:33.007Z</time></trkpt><trkpt lat="43.812760758750386" lon="12.849002193172783"><ele>182.0</ele><time>2026-04-25T06:06:38.007Z</time></trkpt><trkpt lat="43.812682207247995" lon="12.849007804890274"><ele>182.0</ele><time>2026-04-25T06:06:43.007Z</time></trkpt><trkpt lat="43.812614445505076" lon="12.849014671675084"><ele>182.0</ele><time>2026-04-25T06:06:48.007Z</time></trkpt><trkpt lat="43.81253649345827" lon="12.849007872295141"><ele>181.28571428571428</ele><time>2026-04-25T06:06:53.007Z</time></trkpt><trkpt lat="43.812460201807056" lon="12.849007281172343"><ele>180.57142857142856</ele><time>2026-04-25T06:06:58.007Z</time></trkpt><trkpt lat="43.81238241265056" lon="12.849006962007314"><ele>179.85714285714286</ele><time>2026-04-25T06:07:02.007Z</time></trkpt><trkpt lat="43.81231891705953" lon="12.849005319068333"><ele>179.14285714285714</ele><time>2026-04-25T06:07:06.007Z</time></trkpt><trkpt lat="43.81224265092213" lon="12.848971686922273"><ele>178.42857142857142</ele><time>2026-04-25T06:07:11.007Z</time></trkpt><trkpt lat="43.81217268801628" lon="12.848938144163679"><ele>177.71428571428572</ele><time>2026-04-25T06:07:16.007Z</time></trkpt><trkpt lat="43.81210504376937" lon="12.848910366893621"><ele>177.0</ele><time>2026-04-25T06:07:21.007Z</time></trkpt><trkpt lat="43.81203874877447" lon="12.848892817264945"><ele>177.0</ele><time>2026-04-25T06:07:25.007Z</time></trkpt><trkpt lat="43.811969350443356" lon="12.848849464101518"><ele>177.0</ele><time>2026-04-25T06:07:31.007Z</time></trkpt><trkpt lat="43.81190583109517" lon="12.848820951471513"><ele>177.0</ele><time>2026-04-25T06:07:35.007Z</time></trkpt><trkpt lat="43.81183371674788" lon="12.848783894667003"><ele>177.0</ele><time>2026-04-25T06:07:40.006Z</time></trkpt><trkpt lat="43.81176406452479" lon="12.848748725051053"><ele>177.0</ele><time>2026-04-25T06:07:45.006Z</time></trkpt><trkpt lat="43.81169242747167" lon="12.848730559897584"><ele>177.0</ele><time>2026-04-25T06:07:50.006Z</time></trkpt><trkpt lat="43.81162936136551" lon="12.848712882913546"><ele>177.0</ele><time>2026-04-25T06:07:55.006Z</time></trkpt><trkpt lat="43.81155625934207" lon="12.848681868034188"><ele>176.14285714285714</ele><time>2026-04-25T06:08:00.006Z</time></trkpt><trkpt lat="43.81148106416128" lon="12.848672702455367"><ele>175.28571428571428</ele><time>2026-04-25T06:08:05.006Z</time></trkpt><trkpt lat="43.81141660058565" lon="12.848677386576325"><ele>174.42857142857142</ele><time>2026-04-25T06:08:09.008Z</time></trkpt><trkpt lat="43.811353389362196" lon="12.848672750774634"><ele>173.57142857142856</ele><time>2026-04-25T06:08:14.008Z</time></trkpt><trkpt lat="43.81128690537784" lon="12.848680998803948"><ele>172.71428571428572</ele><time>2026-04-25T06:08:19.008Z</time></trkpt><trkpt lat="43.811221242691154" lon="12.848682414120255"><ele>171.85714285714283</ele><time>2026-04-25T06:08:23.008Z</time></trkpt><trkpt lat="43.81115491476248" lon="12.84865747999035"><ele>171.0</ele><time>2026-04-25T06:08:27.008Z</time></trkpt><trkpt lat="43.81108547213477" lon="12.848654523657679"><ele>170.99999999999997</ele><time>2026-04-25T06:08:31.008Z</time></trkpt><trkpt lat="43.81101556894463" lon="12.848682152529115"><ele>171.0</ele><time>2026-04-25T06:08:35.008Z</time></trkpt><trkpt lat="43.810942079411824" lon="12.848708547352125"><ele>171.0</ele><time>2026-04-25T06:08:40.008Z</time></trkpt><trkpt lat="43.8108678296865" lon="12.84873657415486"><ele>171.0</ele><time>2026-04-25T06:08:45.008Z</time></trkpt><trkpt lat="43.81080235684773" lon="12.848749174419119"><ele>171.0</ele><time>2026-04-25T06:08:50.008Z</time></trkpt><trkpt lat="43.81073195285053" lon="12.84879040192558"><ele>170.99999999999997</ele><time>2026-04-25T06:08:56.008Z</time></trkpt><trkpt lat="43.8106741386009" lon="12.84883447627479"><ele>171.0</ele><time>2026-04-25T06:09:00.008Z</time></trkpt><trkpt lat="43.81061810699079" lon="12.848886389906502"><ele>170.7142857142857</ele><time>2026-04-25T06:09:04.008Z</time></trkpt><trkpt lat="43.81055514405747" lon="12.848942674664237"><ele>170.42857142857142</ele><time>2026-04-25T06:09:09.008Z</time></trkpt><trkpt lat="43.81050374172414" lon="12.849007515714913"><ele>170.14285714285714</ele><time>2026-04-25T06:09:14.008Z</time></trkpt><trkpt lat="43.810440289531634" lon="12.849057958039435"><ele>169.85714285714283</ele><time>2026-04-25T06:09:19.008Z</time></trkpt><trkpt lat="43.81038208465279" lon="12.849116543847607"><ele>169.57142857142856</ele><time>2026-04-25T06:09:24.008Z</time></trkpt><trkpt lat="43.810329270061324" lon="12.849170196007035"><ele>169.28571428571428</ele><time>2026-04-25T06:09:28.008Z</time></trkpt><trkpt lat="43.810276430745866" lon="12.849223080648544"><ele>169.0</ele><time>2026-04-25T06:09:33.008Z</time></trkpt><trkpt lat="43.81021067960705" lon="12.849268051191517"><ele>167.0</ele><time>2026-04-25T06:09:38.008Z</time></trkpt><trkpt lat="43.81014954430068" lon="12.849326704786431"><ele>165.0</ele><time>2026-04-25T06:09:43.008Z</time></trkpt><trkpt lat="43.81009219069475" lon="12.849380681763638"><ele>163.0</ele><time>2026-04-25T06:09:47.008Z</time></trkpt><trkpt lat="43.81002311086682" lon="12.849418478349962"><ele>161.0</ele><time>2026-04-25T06:09:51.008Z</time></trkpt><trkpt lat="43.809967031747696" lon="12.849458224558157"><ele>159.0</ele><time>2026-04-25T06:09:55.008Z</time></trkpt><trkpt lat="43.809901056451224" lon="12.849520132244963"><ele>157.0</ele><time>2026-04-25T06:10:00.008Z</time></trkpt><trkpt lat="43.80983987404161" lon="12.84956682624195"><ele>155.0</ele><time>2026-04-25T06:10:05.008Z</time></trkpt><trkpt lat="43.809779738558355" lon="12.849598691996816"><ele>155.0</ele><time>2026-04-25T06:10:09.008Z</time></trkpt><trkpt lat="43.80970387833185" lon="12.849628380684019"><ele>155.0</ele><time>2026-04-25T06:10:14.01Z</time></trkpt><trkpt lat="43.80963871918819" lon="12.849676465444372"><ele>155.0</ele><time>2026-04-25T06:10:19.01Z</time></trkpt><trkpt lat="43.809556891103114" lon="12.84971372437847"><ele>155.0</ele><time>2026-04-25T06:10:25.01Z</time></trkpt><trkpt lat="43.80949494710039" lon="12.849729304966473"><ele>155.0</ele><time>2026-04-25T06:10:29.01Z</time></trkpt><trkpt lat="43.809420355326225" lon="12.849738289539841"><ele>155.0</ele><time>2026-04-25T06:10:34.01Z</time></trkpt><trkpt lat="43.809355906311445" lon="12.849715924458637"><ele>155.0</ele><time>2026-04-25T06:10:39.01Z</time></trkpt><trkpt lat="43.80931157860412" lon="12.849633065328316"><ele>155.28571428571428</ele><time>2026-04-25T06:10:44.01Z</time></trkpt><trkpt lat="43.80929913369219" lon="12.84954285447541"><ele>155.57142857142856</ele><time>2026-04-25T06:10:49.01Z</time></trkpt><trkpt lat="43.80931055127066" lon="12.849433687032786"><ele>155.85714285714283</ele><time>2026-04-25T06:10:55.01Z</time></trkpt><trkpt lat="43.80930809579777" lon="12.849333221503642"><ele>156.14285714285714</ele><time>2026-04-25T06:11:00.01Z</time></trkpt><trkpt lat="43.80930521473659" lon="12.849227297474455"><ele>156.42857142857142</ele><time>2026-04-25T06:11:06.01Z</time></trkpt><trkpt lat="43.80930135951944" lon="12.849129110841801"><ele>156.7142857142857</ele><time>2026-04-25T06:11:11.01Z</time></trkpt><trkpt lat="43.8092944780727" lon="12.849039045195727"><ele>157.0</ele><time>2026-04-25T06:11:15.01Z</time></trkpt><trkpt lat="43.80930346709113" lon="12.848938360993948"><ele>157.7142857142857</ele><time>2026-04-25T06:11:20.01Z</time></trkpt><trkpt lat="43.80930918696874" lon="12.848844415975968"><ele>158.42857142857142</ele><time>2026-04-25T06:11:25.01Z</time></trkpt><trkpt lat="43.80930653293787" lon="12.84874486422508"><ele>159.14285714285714</ele><time>2026-04-25T06:11:30.01Z</time></trkpt><trkpt lat="43.80931454614199" lon="12.848651931244829"><ele>159.85714285714283</ele><time>2026-04-25T06:11:34.01Z</time></trkpt><trkpt lat="43.80933206721649" lon="12.848546284131684"><ele>160.57142857142856</ele><time>2026-04-25T06:11:39.01Z</time></trkpt><trkpt lat="43.80932886624538" lon="12.848452261593392"><ele>161.28571428571428</ele><time>2026-04-25T06:11:44.01Z</time></trkpt><trkpt lat="43.80933088036239" lon="12.848362164533008"><ele>162.0</ele><time>2026-04-25T06:11:49.01Z</time></trkpt><trkpt lat="43.80933125416331" lon="12.848274136481118"><ele>161.71428571428572</ele><time>2026-04-25T06:11:52.01Z</time></trkpt><trkpt lat="43.809326959778694" lon="12.84818640249663"><ele>161.42857142857142</ele><time>2026-04-25T06:11:56.01Z</time></trkpt><trkpt lat="43.809334038261326" lon="12.848082516162556"><ele>161.14285714285714</ele><time>2026-04-25T06:12:01.01Z</time></trkpt><trkpt lat="43.8093387225966" lon="12.847992464117716"><ele>160.85714285714286</ele><time>2026-04-25T06:12:05.01Z</time></trkpt><trkpt lat="43.80934075713362" lon="12.84789109971831"><ele>160.57142857142858</ele><time>2026-04-25T06:12:11.01Z</time></trkpt><trkpt lat="43.80936486547737" lon="12.847794946527525"><ele>160.28571428571428</ele><time>2026-04-25T06:12:16.01Z</time></trkpt><trkpt lat="43.809369498520525" lon="12.84770790321308"><ele>160.0</ele><time>2026-04-25T06:12:20.011Z</time></trkpt><trkpt lat="43.80936873395422" lon="12.84760594651613"><ele>160.0</ele><time>2026-04-25T06:12:26.011Z</time></trkpt><trkpt lat="43.80938743115885" lon="12.847518826407734"><ele>160.0</ele><time>2026-04-25T06:12:30.012Z</time></trkpt><trkpt lat="43.80939300919909" lon="12.847421856185438"><ele>160.0</ele><time>2026-04-25T06:12:35.012Z</time></trkpt><trkpt lat="43.8093793650789" lon="12.84731166366413"><ele>160.0</ele><time>2026-04-25T06:12:40.012Z</time></trkpt><trkpt lat="43.80937642276649" lon="12.847216868739824"><ele>160.0</ele><time>2026-04-25T06:12:44.012Z</time></trkpt><trkpt lat="43.80939065749081" lon="12.84711291608085"><ele>160.0</ele><time>2026-04-25T06:12:49.012Z</time></trkpt><trkpt lat="43.80938392291203" lon="12.847009640568793"><ele>160.0</ele><time>2026-04-25T06:12:54.012Z</time></trkpt><trkpt lat="43.80939254575962" lon="12.846904596336659"><ele>160.0</ele><time>2026-04-25T06:12:59.012Z</time></trkpt><trkpt lat="43.80939142137181" lon="12.846804518106357"><ele>160.0</ele><time>2026-04-25T06:13:03.012Z</time></trkpt><trkpt lat="43.80940804514381" lon="12.846700337738433"><ele>160.0</ele><time>2026-04-25T06:13:08.012Z</time></trkpt><trkpt lat="43.80942009528587" lon="12.846613947494266"><ele>160.0</ele><time>2026-04-25T06:13:12.012Z</time></trkpt><trkpt lat="43.809417126068496" lon="12.846504750984357"><ele>160.0</ele><time>2026-04-25T06:13:16.012Z</time></trkpt><trkpt lat="43.809426919126935" lon="12.846399908739857"><ele>160.0</ele><time>2026-04-25T06:13:21.012Z</time></trkpt><trkpt lat="43.80943041101284" lon="12.846312725029986"><ele>160.0</ele><time>2026-04-25T06:13:26.012Z</time></trkpt><trkpt lat="43.80943015422258" lon="12.84620930971164"><ele>159.14285714285714</ele><time>2026-04-25T06:13:31.011Z</time></trkpt><trkpt lat="43.80942989474505" lon="12.846105404192835"><ele>158.28571428571428</ele><time>2026-04-25T06:13:35.011Z</time></trkpt><trkpt lat="43.80942100995071" lon="12.846016881084482"><ele>157.42857142857144</ele><time>2026-04-25T06:13:39.011Z</time></trkpt><trkpt lat="43.809425714732654" lon="12.845906047257895"><ele>156.57142857142856</ele><time>2026-04-25T06:13:44.011Z</time></trkpt><trkpt lat="43.80941074844479" lon="12.845808451431767"><ele>155.71428571428572</ele><time>2026-04-25T06:13:49.011Z</time></trkpt><trkpt lat="43.809410997856205" lon="12.8457133958993"><ele>154.85714285714286</ele><time>2026-04-25T06:13:54.011Z</time></trkpt><trkpt lat="43.80940875693229" lon="12.845611028623358"><ele>154.0</ele><time>2026-04-25T06:14:00.011Z</time></trkpt><trkpt lat="43.80941369471043" lon="12.845511681057847"><ele>153.85714285714286</ele><time>2026-04-25T06:14:05.011Z</time></trkpt><trkpt lat="43.80940196329045" lon="12.845408386738484"><ele>153.71428571428572</ele><time>2026-04-25T06:14:11.011Z</time></trkpt><trkpt lat="43.809383557861004" lon="12.845307808720051"><ele>153.57142857142856</ele><time>2026-04-25T06:14:15.011Z</time></trkpt><trkpt lat="43.809383646717194" lon="12.84520543749157"><ele>153.42857142857144</ele><time>2026-04-25T06:14:20.011Z</time></trkpt><trkpt lat="43.809385902071035" lon="12.845110549492123"><ele>153.28571428571428</ele><time>2026-04-25T06:14:25.013Z</time></trkpt><trkpt lat="43.8093782103937" lon="12.845013645334728"><ele>153.14285714285714</ele><time>2026-04-25T06:14:29.013Z</time></trkpt><trkpt lat="43.809373102593945" lon="12.844921811744703"><ele>153.0</ele><time>2026-04-25T06:14:33.014Z</time></trkpt><trkpt lat="43.80936948208992" lon="12.84482436774033"><ele>153.0</ele><time>2026-04-25T06:14:38.013Z</time></trkpt><trkpt lat="43.80936311821996" lon="12.844727687143399"><ele>153.0</ele><time>2026-04-25T06:14:42.013Z</time></trkpt><trkpt lat="43.80936358255607" lon="12.844632118007073"><ele>153.0</ele><time>2026-04-25T06:14:47.013Z</time></trkpt><trkpt lat="43.809365012945065" lon="12.844533528163957"><ele>153.0</ele><time>2026-04-25T06:14:52.013Z</time></trkpt><trkpt lat="43.809355855152646" lon="12.844428094748029"><ele>153.0</ele><time>2026-04-25T06:14:57.013Z</time></trkpt><trkpt lat="43.809355106797156" lon="12.844337612199126"><ele>153.0</ele><time>2026-04-25T06:15:01.013Z</time></trkpt><trkpt lat="43.80934394449616" lon="12.844246294938282"><ele>153.0</ele><time>2026-04-25T06:15:06.013Z</time></trkpt><trkpt lat="43.80933299892484" lon="12.844159092590921"><ele>150.42857142857142</ele><time>2026-04-25T06:15:11.013Z</time></trkpt><trkpt lat="43.8093081062889" lon="12.84407326260444"><ele>147.85714285714286</ele><time>2026-04-25T06:15:16.013Z</time></trkpt><trkpt lat="43.809283722560416" lon="12.843989651387723"><ele>145.28571428571428</ele><time>2026-04-25T06:15:20.013Z</time></trkpt><trkpt lat="43.80923763729935" lon="12.843921696288826"><ele>142.71428571428572</ele><time>2026-04-25T06:15:25.013Z</time></trkpt><trkpt lat="43.80917481823079" lon="12.843864682436866"><ele>140.14285714285714</ele><time>2026-04-25T06:15:30.012Z</time></trkpt><trkpt lat="43.809111911025084" lon="12.84381590477568"><ele>137.57142857142856</ele><time>2026-04-25T06:15:34.012Z</time></trkpt><trkpt lat="43.80905381713676" lon="12.843776398902026"><ele>135.0</ele><time>2026-04-25T06:15:38.012Z</time></trkpt><trkpt lat="43.80899660321199" lon="12.843739713797197"><ele>135.0</ele><time>2026-04-25T06:15:41.012Z</time></trkpt><trkpt lat="43.808931787208074" lon="12.843686525894324"><ele>135.0</ele><time>2026-04-25T06:15:46.012Z</time></trkpt><trkpt lat="43.808876793388414" lon="12.843617604425189"><ele>135.0</ele><time>2026-04-25T06:15:51.012Z</time></trkpt><trkpt lat="43.80883306827218" lon="12.843548771578858"><ele>135.0</ele><time>2026-04-25T06:15:57.012Z</time></trkpt><trkpt lat="43.8087978974981" lon="12.843464366881172"><ele>135.0</ele><time>2026-04-25T06:16:02.012Z</time></trkpt><trkpt lat="43.808768151395824" lon="12.843379534574431"><ele>135.0</ele><time>2026-04-25T06:16:07.012Z</time></trkpt><trkpt lat="43.80875798712521" lon="12.843277568325531"><ele>135.0</ele><time>2026-04-25T06:16:12.012Z</time></trkpt><trkpt lat="43.80873951955723" lon="12.84318377032893"><ele>134.57142857142856</ele><time>2026-04-25T06:16:17.012Z</time></trkpt><trkpt lat="43.808706003899125" lon="12.843103020826906"><ele>134.14285714285714</ele><time>2026-04-25T06:16:21.012Z</time></trkpt><trkpt lat="43.80869755396702" lon="12.843011022854395"><ele>133.71428571428572</ele><time>2026-04-25T06:16:26.012Z</time></trkpt><trkpt lat="43.808663919646094" lon="12.842923515777802"><ele>133.28571428571428</ele><time>2026-04-25T06:16:30.015Z</time></trkpt><trkpt lat="43.8086370157663" lon="12.842839579355308"><ele>132.85714285714286</ele><time>2026-04-25T06:16:34.015Z</time></trkpt><trkpt lat="43.80859236507907" lon="12.842747434071056"><ele>132.42857142857142</ele><time>2026-04-25T06:16:39.015Z</time></trkpt><trkpt lat="43.808570840316975" lon="12.842662112919674"><ele>132.0</ele><time>2026-04-25T06:16:44.015Z</time></trkpt><trkpt lat="43.80854515341884" lon="12.842570396799028"><ele>131.42857142857142</ele><time>2026-04-25T06:16:49.015Z</time></trkpt><trkpt lat="43.80853231114075" lon="12.842481962667797"><ele>130.85714285714286</ele><time>2026-04-25T06:16:53.015Z</time></trkpt><trkpt lat="43.808525920066366" lon="12.842385372502497"><ele>130.28571428571428</ele><time>2026-04-25T06:16:58.015Z</time></trkpt><trkpt lat="43.808538201607256" lon="12.84229269852955"><ele>129.71428571428572</ele><time>2026-04-25T06:17:03.015Z</time></trkpt><trkpt lat="43.80854283465383" lon="12.842194437091134"><ele>129.14285714285714</ele><time>2026-04-25T06:17:08.015Z</time></trkpt><trkpt lat="43.808555669657785" lon="12.842100242600955"><ele>128.57142857142856</ele><time>2026-04-25T06:17:13.014Z</time></trkpt><trkpt lat="43.80856164917269" lon="12.84200668316659"><ele>128.0</ele><time>2026-04-25T06:17:18.014Z</time></trkpt><trkpt lat="43.80855332558869" lon="12.841914337755117"><ele>128.0</ele><time>2026-04-25T06:17:22.014Z</time></trkpt><trkpt lat="43.80853943335944" lon="12.841813470698344"><ele>127.99999999999999</ele><time>2026-04-25T06:17:27.014Z</time></trkpt><trkpt lat="43.808519893571756" lon="12.841713455078509"><ele>128.0</ele><time>2026-04-25T06:17:32.014Z</time></trkpt><trkpt lat="43.80847326707456" lon="12.841628305462985"><ele>128.0</ele><time>2026-04-25T06:17:38.014Z</time></trkpt><trkpt lat="43.80842102740954" lon="12.841574016373398"><ele>127.99999999999999</ele><time>2026-04-25T06:17:43.014Z</time></trkpt><trkpt lat="43.8083632107781" lon="12.841510295589131"><ele>128.0</ele><time>2026-04-25T06:17:48.014Z</time></trkpt><trkpt lat="43.808298651300184" lon="12.841438317950818"><ele>128.0</ele><time>2026-04-25T06:17:53.014Z</time></trkpt><trkpt lat="43.80826200973832" lon="12.84135886408129"><ele>127.85714285714285</ele><time>2026-04-25T06:17:58.014Z</time></trkpt><trkpt lat="43.808237967598174" lon="12.841276471662034"><ele>127.7142857142857</ele><time>2026-04-25T06:18:02.014Z</time></trkpt><trkpt lat="43.808203627036875" lon="12.841183449672334"><ele>127.57142857142857</ele><time>2026-04-25T06:18:07.014Z</time></trkpt><trkpt lat="43.8081743194542" lon="12.841096158479992"><ele>127.42857142857142</ele><time>2026-04-25T06:18:12.014Z</time></trkpt><trkpt lat="43.80811633429964" lon="12.84102515275391"><ele>127.28571428571428</ele><time>2026-04-25T06:18:18.014Z</time></trkpt><trkpt lat="43.80805350774654" lon="12.840976936396705"><ele>127.14285714285714</ele><time>2026-04-25T06:18:23.014Z</time></trkpt><trkpt lat="43.807995050723505" lon="12.840940971063711"><ele>127.0</ele><time>2026-04-25T06:18:27.014Z</time></trkpt><trkpt lat="43.80793080568009" lon="12.84092484654776"><ele>127.0</ele><time>2026-04-25T06:18:32.014Z</time></trkpt><trkpt lat="43.80785936778597" lon="12.840907909535762"><ele>127.0</ele><time>2026-04-25T06:18:36.016Z</time></trkpt><trkpt lat="43.8077906025246" lon="12.840892988607557"><ele>127.0</ele><time>2026-04-25T06:18:41.016Z</time></trkpt><trkpt lat="43.807727159172025" lon="12.840867955732449"><ele>127.0</ele><time>2026-04-25T06:18:45.016Z</time></trkpt><trkpt lat="43.8076545747206" lon="12.840844635234006"><ele>127.0</ele><time>2026-04-25T06:18:50.017Z</time></trkpt><trkpt lat="43.807584468356396" lon="12.840812907903429"><ele>127.0</ele><time>2026-04-25T06:18:55.017Z</time></trkpt><trkpt lat="43.807519724829035" lon="12.84077753335962"><ele>127.0</ele><time>2026-04-25T06:19:00.017Z</time></trkpt><trkpt lat="43.80746511344903" lon="12.840732481091685"><ele>128.14285714285714</ele><time>2026-04-25T06:19:04.017Z</time></trkpt><trkpt lat="43.80741237922431" lon="12.84067223387324"><ele>129.28571428571428</ele><time>2026-04-25T06:19:09.017Z</time></trkpt><trkpt lat="43.80736680308379" lon="12.840605267212554"><ele>130.42857142857142</ele><time>2026-04-25T06:19:14.017Z</time></trkpt><trkpt lat="43.80731101741031" lon="12.840530295188648"><ele>131.57142857142856</ele><time>2026-04-25T06:19:19.017Z</time></trkpt><trkpt lat="43.80727565079923" lon="12.840447429511551"><ele>132.7142857142857</ele><time>2026-04-25T06:19:23.017Z</time></trkpt><trkpt lat="43.80726626496859" lon="12.840346669089433"><ele>133.85714285714286</ele><time>2026-04-25T06:19:28.017Z</time></trkpt><trkpt lat="43.80726979306762" lon="12.840255326771311"><ele>135.0</ele><time>2026-04-25T06:19:34.016Z</time></trkpt><trkpt lat="43.80727046550518" lon="12.840160744925688"><ele>133.57142857142856</ele><time>2026-04-25T06:19:38.016Z</time></trkpt><trkpt lat="43.8072563450231" lon="12.840073687380471"><ele>132.14285714285714</ele><time>2026-04-25T06:19:42.016Z</time></trkpt><trkpt lat="43.80724079556043" lon="12.839982048453255"><ele>130.71428571428572</ele><time>2026-04-25T06:19:47.016Z</time></trkpt><trkpt lat="43.8072244188888" lon="12.83989200158659"><ele>129.28571428571428</ele><time>2026-04-25T06:19:51.016Z</time></trkpt><trkpt lat="43.8072125816141" lon="12.839789892554249"><ele>127.85714285714286</ele><time>2026-04-25T06:19:56.016Z</time></trkpt><trkpt lat="43.807199356174245" lon="12.83968689297956"><ele>126.42857142857142</ele><time>2026-04-25T06:20:01.016Z</time></trkpt><trkpt lat="43.80718622666824" lon="12.839592864150896"><ele>125.0</ele><time>2026-04-25T06:20:06.016Z</time></trkpt><trkpt lat="43.807177071124855" lon="12.83947433616825"><ele>125.0</ele><time>2026-04-25T06:20:12.016Z</time></trkpt><trkpt lat="43.80719091365396" lon="12.839370096571864"><ele>125.0</ele><time>2026-04-25T06:20:17.016Z</time></trkpt><trkpt lat="43.807203115863395" lon="12.839279284925675"><ele>125.0</ele><time>2026-04-25T06:20:21.016Z</time></trkpt><trkpt lat="43.8072213659636" lon="12.839186006120746"><ele>125.0</ele><time>2026-04-25T06:20:25.016Z</time></trkpt><trkpt lat="43.807247257074195" lon="12.839101428556795"><ele>125.0</ele><time>2026-04-25T06:20:29.016Z</time></trkpt><trkpt lat="43.80726537988298" lon="12.839016758726725"><ele>125.0</ele><time>2026-04-25T06:20:33.016Z</time></trkpt><trkpt lat="43.8073021690118" lon="12.838928143307571"><ele>125.0</ele><time>2026-04-25T06:20:38.016Z</time></trkpt><trkpt lat="43.80733831275901" lon="12.838849350243594"><ele>124.28571428571428</ele><time>2026-04-25T06:20:43.019Z</time></trkpt><trkpt lat="43.80738185043602" lon="12.838760651634407"><ele>123.57142857142858</ele><time>2026-04-25T06:20:48.018Z</time></trkpt><trkpt lat="43.80742579553986" lon="12.838684988384443"><ele>122.85714285714286</ele><time>2026-04-25T06:20:52.018Z</time></trkpt><trkpt lat="43.80745266054239" lon="12.838604200722376"><ele>122.14285714285714</ele><time>2026-04-25T06:20:56.019Z</time></trkpt><trkpt lat="43.80740155228048" lon="12.83853863113194"><ele>121.42857142857142</ele><time>2026-04-25T06:21:01.019Z</time></trkpt><trkpt lat="43.80733899165566" lon="12.838507734643946"><ele>120.71428571428572</ele><time>2026-04-25T06:21:06.019Z</time></trkpt><trkpt lat="43.80727510039915" lon="12.838457070813545"><ele>120.0</ele><time>2026-04-25T06:21:11.019Z</time></trkpt><trkpt lat="43.807218278261175" lon="12.838400725612148"><ele>119.71428571428572</ele><time>2026-04-25T06:21:15.019Z</time></trkpt><trkpt lat="43.807164135361205" lon="12.838345870955944"><ele>119.42857142857142</ele><time>2026-04-25T06:21:19.019Z</time></trkpt><trkpt lat="43.80710839953415" lon="12.838267918765608"><ele>119.14285714285714</ele><time>2026-04-25T06:21:24.019Z</time></trkpt><trkpt lat="43.80705309583107" lon="12.83819480676369"><ele>118.85714285714286</ele><time>2026-04-25T06:21:29.019Z</time></trkpt><trkpt lat="43.80701177157612" lon="12.838126908063575"><ele>118.57142857142858</ele><time>2026-04-25T06:21:34.019Z</time></trkpt><trkpt lat="43.80697883282831" lon="12.83804427753052"><ele>118.28571428571428</ele><time>2026-04-25T06:21:39.018Z</time></trkpt><trkpt lat="43.80693804190971" lon="12.83797218395212"><ele>118.0</ele><time>2026-04-25T06:21:43.018Z</time></trkpt><trkpt lat="43.80689435563523" lon="12.837896650671512"><ele>118.00000000000001</ele><time>2026-04-25T06:21:48.018Z</time></trkpt><trkpt lat="43.80683907168904" lon="12.837839712997138"><ele>118.0</ele><time>2026-04-25T06:21:53.018Z</time></trkpt><trkpt lat="43.80679869477258" lon="12.83774774861729"><ele>118.0</ele><time>2026-04-25T06:21:58.018Z</time></trkpt><trkpt lat="43.806774023461166" lon="12.837645680997396"><ele>118.0</ele><time>2026-04-25T06:22:03.018Z</time></trkpt><trkpt lat="43.806749971868136" lon="12.837539502648283"><ele>118.00000000000001</ele><time>2026-04-25T06:22:08.018Z</time></trkpt><trkpt lat="43.80675035797762" lon="12.837436130616439"><ele>118.0</ele><time>2026-04-25T06:22:14.018Z</time></trkpt><trkpt lat="43.80673117545356" lon="12.837340643056352"><ele>118.14285714285714</ele><time>2026-04-25T06:22:19.018Z</time></trkpt><trkpt lat="43.80672955805208" lon="12.837236056843908"><ele>118.28571428571429</ele><time>2026-04-25T06:22:24.018Z</time></trkpt><trkpt lat="43.80671168424356" lon="12.837151413579399"><ele>118.42857142857143</ele><time>2026-04-25T06:22:28.018Z</time></trkpt><trkpt lat="43.80668113356593" lon="12.837062599105817"><ele>118.57142857142857</ele><time>2026-04-25T06:22:33.018Z</time></trkpt><trkpt lat="43.80665414982838" lon="12.836977333560364"><ele>118.71428571428572</ele><time>2026-04-25T06:22:38.018Z</time></trkpt><trkpt lat="43.806616214291175" lon="12.836902720900307"><ele>118.85714285714286</ele><time>2026-04-25T06:22:43.018Z</time></trkpt><trkpt lat="43.8065612451375" lon="12.836836649559313"><ele>119.0</ele><time>2026-04-25T06:22:48.02Z</time></trkpt><trkpt lat="43.80649245476498" lon="12.836796990710132"><ele>119.0</ele><time>2026-04-25T06:22:53.019Z</time></trkpt><trkpt lat="43.80642666425566" lon="12.836758898987675"><ele>119.0</ele><time>2026-04-25T06:22:58.02Z</time></trkpt><trkpt lat="43.80637431318524" lon="12.836692597300829"><ele>119.0</ele><time>2026-04-25T06:23:03.02Z</time></trkpt><trkpt lat="43.80634743792556" lon="12.836598206979811"><ele>119.0</ele><time>2026-04-25T06:23:08.02Z</time></trkpt><trkpt lat="43.80631379001803" lon="12.836523626128841"><ele>119.0</ele><time>2026-04-25T06:23:18.02Z</time></trkpt><trkpt lat="43.80627429974728" lon="12.836447845170625"><ele>119.0</ele><time>2026-04-25T06:23:23.02Z</time></trkpt><trkpt lat="43.80623371625554" lon="12.83638009429009"><ele>119.0</ele><time>2026-04-25T06:23:31.02Z</time></trkpt><trkpt lat="43.806180254391876" lon="12.836321615778726"><ele>119.0</ele><time>2026-04-25T06:23:36.02Z</time></trkpt><trkpt lat="43.806119835200484" lon="12.836288261621936"><ele>119.0</ele><time>2026-04-25T06:23:43.02Z</time></trkpt><trkpt lat="43.806061225547026" lon="12.836252782997718"><ele>119.0</ele><time>2026-04-25T06:23:49.02Z</time></trkpt><trkpt lat="43.806002563408576" lon="12.836218314035495"><ele>119.0</ele><time>2026-04-25T06:23:55.02Z</time></trkpt><trkpt lat="43.805936424580466" lon="12.836188937418067"><ele>119.0</ele><time>2026-04-25T06:24:01.02Z</time></trkpt><trkpt lat="43.805875965872524" lon="12.836159307977969"><ele>119.0</ele><time>2026-04-25T06:24:07.02Z</time></trkpt><trkpt lat="43.80581057109653" lon="12.836129474309162"><ele>119.0</ele><time>2026-04-25T06:24:15.02Z</time></trkpt><trkpt lat="43.80575029235635" lon="12.836102429497707"><ele>120.14285714285714</ele><time>2026-04-25T06:24:20.02Z</time></trkpt><trkpt lat="43.805691891945216" lon="12.836067311108945"><ele>121.28571428571428</ele><time>2026-04-25T06:24:25.02Z</time></trkpt><trkpt lat="43.80562843137255" lon="12.836031828329768"><ele>122.42857142857143</ele><time>2026-04-25T06:24:31.02Z</time></trkpt><trkpt lat="43.80556570751708" lon="12.836007696195315"><ele>123.57142857142857</ele><time>2026-04-25T06:24:39.02Z</time></trkpt><trkpt lat="43.80550816185295" lon="12.835969507807942"><ele>124.71428571428571</ele><time>2026-04-25T06:24:45.02Z</time></trkpt><trkpt lat="43.80547009198308" lon="12.835892942717628"><ele>125.85714285714286</ele><time>2026-04-25T06:24:52.02Z</time></trkpt><trkpt lat="43.805426274455" lon="12.83581936836241"><ele>127.0</ele><time>2026-04-25T06:25:00.021Z</time></trkpt><trkpt lat="43.80536591908616" lon="12.8357593674809"><ele>127.42857142857143</ele><time>2026-04-25T06:25:07.022Z</time></trkpt><trkpt lat="43.80530126999543" lon="12.835724365995432"><ele>127.85714285714286</ele><time>2026-04-25T06:25:13.022Z</time></trkpt><trkpt lat="43.805243217532755" lon="12.835688703749671"><ele>128.28571428571428</ele><time>2026-04-25T06:25:19.021Z</time></trkpt><trkpt lat="43.8051856217462" lon="12.835638193665314"><ele>128.71428571428572</ele><time>2026-04-25T06:25:26.021Z</time></trkpt><trkpt lat="43.80511698476432" lon="12.835639861809248"><ele>129.14285714285714</ele><time>2026-04-25T06:25:34.021Z</time></trkpt><trkpt lat="43.80504839437796" lon="12.835626413617584"><ele>129.57142857142858</ele><time>2026-04-25T06:25:41.021Z</time></trkpt><trkpt lat="43.80497481628797" lon="12.83561813004223"><ele>130.0</ele><time>2026-04-25T06:25:48.021Z</time></trkpt><trkpt lat="43.80490816348372" lon="12.835640613707803"><ele>134.14285714285717</ele><time>2026-04-25T06:25:55.021Z</time></trkpt><trkpt lat="43.80484024019047" lon="12.835655601440232"><ele>138.28571428571428</ele><time>2026-04-25T06:26:03.021Z</time></trkpt><trkpt lat="43.80476988314833" lon="12.835648171967572"><ele>142.42857142857144</ele><time>2026-04-25T06:26:10.021Z</time></trkpt><trkpt lat="43.80472215525929" lon="12.83558710707959"><ele>146.57142857142858</ele><time>2026-04-25T06:26:15.021Z</time></trkpt><trkpt lat="43.804659718871314" lon="12.835550673383871"><ele>150.71428571428572</ele><time>2026-04-25T06:26:22.021Z</time></trkpt><trkpt lat="43.804596786162115" lon="12.835507627647347"><ele>154.85714285714286</ele><time>2026-04-25T06:26:29.021Z</time></trkpt><trkpt lat="43.804533112410425" lon="12.835477880436262"><ele>159.0</ele><time>2026-04-25T06:26:35.021Z</time></trkpt><trkpt lat="43.804478347851166" lon="12.835414929761946"><ele>159.0</ele><time>2026-04-25T06:26:43.021Z</time></trkpt><trkpt lat="43.80449863846026" lon="12.835327397202159"><ele>159.0</ele><time>2026-04-25T06:26:49.021Z</time></trkpt><trkpt lat="43.804570214209114" lon="12.835320875439656"><ele>159.0</ele><time>2026-04-25T06:26:55.021Z</time></trkpt><trkpt lat="43.80462123111602" lon="12.835241115940436"><ele>159.0</ele><time>2026-04-25T06:27:05.023Z</time></trkpt><trkpt lat="43.80468089971063" lon="12.835204291859757"><ele>159.0</ele><time>2026-04-25T06:27:13.024Z</time></trkpt><trkpt lat="43.80473626485557" lon="12.835157790339068"><ele>159.0</ele><time>2026-04-25T06:27:19.024Z</time></trkpt><trkpt lat="43.804795278434895" lon="12.83510804672789"><ele>159.0</ele><time>2026-04-25T06:27:25.024Z</time></trkpt><trkpt lat="43.80484717632347" lon="12.83505513909284"><ele>160.28571428571428</ele><time>2026-04-25T06:27:32.024Z</time></trkpt><trkpt lat="43.80488825773031" lon="12.8349874990385"><ele>161.57142857142858</ele><time>2026-04-25T06:27:38.024Z</time></trkpt><trkpt lat="43.80492934341075" lon="12.83490882818989"><ele>162.85714285714286</ele><time>2026-04-25T06:27:46.023Z</time></trkpt><trkpt lat="43.80495251898828" lon="12.83482585859792"><ele>164.14285714285714</ele><time>2026-04-25T06:27:52.023Z</time></trkpt><trkpt lat="43.804971823936924" lon="12.834729664235892"><ele>165.42857142857144</ele><time>2026-04-25T06:27:59.023Z</time></trkpt><trkpt lat="43.80499272700346" lon="12.834638724027823"><ele>166.71428571428572</ele><time>2026-04-25T06:28:04.023Z</time></trkpt><trkpt lat="43.80500382409474" lon="12.83454365545836"><ele>168.0</ele><time>2026-04-25T06:28:11.023Z</time></trkpt><trkpt lat="43.80502213280142" lon="12.834454714176763"><ele>168.0</ele><time>2026-04-25T06:28:18.023Z</time></trkpt><trkpt lat="43.80503035876139" lon="12.834363068683736"><ele>168.0</ele><time>2026-04-25T06:28:24.023Z</time></trkpt><trkpt lat="43.80503493946771" lon="12.834269354233598"><ele>168.0</ele><time>2026-04-25T06:28:31.023Z</time></trkpt><trkpt lat="43.80504049663753" lon="12.83417502064895"><ele>168.0</ele><time>2026-04-25T06:28:38.023Z</time></trkpt><trkpt lat="43.805040413879695" lon="12.83408096145363"><ele>168.0</ele><time>2026-04-25T06:28:45.023Z</time></trkpt><trkpt lat="43.80504115787124" lon="12.833985117948986"><ele>168.0</ele><time>2026-04-25T06:28:53.023Z</time></trkpt><trkpt lat="43.80503376200364" lon="12.833891151774102"><ele>168.0</ele><time>2026-04-25T06:29:00.023Z</time></trkpt><trkpt lat="43.80499052616685" lon="12.83381258455608"><ele>169.42857142857142</ele><time>2026-04-25T06:29:07.025Z</time></trkpt><trkpt lat="43.80494339752597" lon="12.833753076454977"><ele>170.85714285714286</ele><time>2026-04-25T06:29:14.024Z</time></trkpt><trkpt lat="43.804880410894064" lon="12.833747938316858"><ele>172.28571428571428</ele><time>2026-04-25T06:29:20.025Z</time></trkpt><trkpt lat="43.804818477743495" lon="12.833789080211156"><ele>173.71428571428572</ele><time>2026-04-25T06:29:26.025Z</time></trkpt><trkpt lat="43.80478110355466" lon="12.833860411791765"><ele>175.14285714285714</ele><time>2026-04-25T06:29:31.025Z</time></trkpt><trkpt lat="43.80474392627877" lon="12.833944560812654"><ele>176.57142857142856</ele><time>2026-04-25T06:29:37.025Z</time></trkpt><trkpt lat="43.80470439972941" lon="12.834021481131463"><ele>178.0</ele><time>2026-04-25T06:29:43.025Z</time></trkpt><trkpt lat="43.80466632668484" lon="12.83410734748289"><ele>177.99999999999997</ele><time>2026-04-25T06:29:49.025Z</time></trkpt><trkpt lat="43.80462999388691" lon="12.834197209849362"><ele>178.0</ele><time>2026-04-25T06:29:55.025Z</time></trkpt><trkpt lat="43.804597505061544" lon="12.834279376496525"><ele>178.0</ele><time>2026-04-25T06:30:01.025Z</time></trkpt><trkpt lat="43.8045450609577" lon="12.834351495139936"><ele>178.0</ele><time>2026-04-25T06:30:08.025Z</time></trkpt><trkpt lat="43.80449033935801" lon="12.834400092677337"><ele>178.0</ele><time>2026-04-25T06:30:12.025Z</time></trkpt><trkpt lat="43.80443278751532" lon="12.834452448119164"><ele>177.99999999999997</ele><time>2026-04-25T06:30:18.025Z</time></trkpt><trkpt lat="43.80437337293992" lon="12.834494007762371"><ele>178.0</ele><time>2026-04-25T06:30:25.025Z</time></trkpt><trkpt lat="43.804305451440094" lon="12.834500621308699"><ele>179.42857142857142</ele><time>2026-04-25T06:30:32.025Z</time></trkpt><trkpt lat="43.804232617266905" lon="12.834532742896258"><ele>180.85714285714286</ele><time>2026-04-25T06:30:38.025Z</time></trkpt><trkpt lat="43.80417032030757" lon="12.834561132254482"><ele>182.28571428571428</ele><time>2026-04-25T06:30:45.025Z</time></trkpt><trkpt lat="43.80410830935014" lon="12.834601396201128"><ele>183.71428571428572</ele><time>2026-04-25T06:30:53.024Z</time></trkpt><trkpt lat="43.80404563659633" lon="12.834634077855823"><ele>185.14285714285714</ele><time>2026-04-25T06:31:00.024Z</time></trkpt><trkpt lat="43.80399418870674" lon="12.834686713812369"><ele>186.57142857142856</ele><time>2026-04-25T06:31:08.024Z</time></trkpt><trkpt lat="43.80393479734244" lon="12.834717987297802"><ele>188.0</ele><time>2026-04-25T06:31:15.027Z</time></trkpt><trkpt lat="43.803866634719" lon="12.834723251195767"><ele>188.0</ele><time>2026-04-25T06:31:22.026Z</time></trkpt><trkpt lat="43.80380259971969" lon="12.834733231757067"><ele>188.0</ele><time>2026-04-25T06:31:29.027Z</time></trkpt><trkpt lat="43.80373703336777" lon="12.834729721753847"><ele>188.0</ele><time>2026-04-25T06:31:36.027Z</time></trkpt><trkpt lat="43.803672089006824" lon="12.834718615050678"><ele>188.0</ele><time>2026-04-25T06:31:41.026Z</time></trkpt><trkpt lat="43.80360275161809" lon="12.834706683591552"><ele>188.0</ele><time>2026-04-25T06:31:49.026Z</time></trkpt><trkpt lat="43.8035374423777" lon="12.834693498358801"><ele>188.0</ele><time>2026-04-25T06:31:57.026Z</time></trkpt><trkpt lat="43.80347346291215" lon="12.834699532358826"><ele>188.0</ele><time>2026-04-25T06:32:04.026Z</time></trkpt><trkpt lat="43.8034039473391" lon="12.834713265652361"><ele>191.71428571428572</ele><time>2026-04-25T06:32:10.026Z</time></trkpt><trkpt lat="43.803347396163986" lon="12.83477166627756"><ele>195.42857142857142</ele><time>2026-04-25T06:32:16.026Z</time></trkpt><trkpt lat="43.80330006933438" lon="12.834839901160061"><ele>199.14285714285717</ele><time>2026-04-25T06:32:23.026Z</time></trkpt><trkpt lat="43.80326190254129" lon="12.83491449763623"><ele>202.85714285714286</ele><time>2026-04-25T06:32:30.026Z</time></trkpt><trkpt lat="43.803215427176006" lon="12.834986699187269"><ele>206.57142857142858</ele><time>2026-04-25T06:32:38.026Z</time></trkpt><trkpt lat="43.80316629274544" lon="12.83505652686712"><ele>210.2857142857143</ele><time>2026-04-25T06:32:44.026Z</time></trkpt><trkpt lat="43.8031166213038" lon="12.835114762962744"><ele>214.0</ele><time>2026-04-25T06:32:51.026Z</time></trkpt><trkpt lat="43.80307256128936" lon="12.835179491644045"><ele>214.2857142857143</ele><time>2026-04-25T06:32:57.026Z</time></trkpt><trkpt lat="43.8030358392815" lon="12.835093715917868"><ele>214.57142857142858</ele><time>2026-04-25T06:33:10.026Z</time></trkpt><trkpt lat="43.80302946949939" lon="12.834993490619974"><ele>214.85714285714286</ele><time>2026-04-25T06:33:17.026Z</time></trkpt><trkpt lat="43.803031949564385" lon="12.834891578655194"><ele>215.14285714285717</ele><time>2026-04-25T06:33:23.029Z</time></trkpt><trkpt lat="43.803036056468414" lon="12.83479060505672"><ele>215.42857142857142</ele><time>2026-04-25T06:33:31.029Z</time></trkpt><trkpt lat="43.80303075507136" lon="12.834697442904641"><ele>215.71428571428572</ele><time>2026-04-25T06:33:38.028Z</time></trkpt><trkpt lat="43.803024088197844" lon="12.834588592998216"><ele>216.0</ele><time>2026-04-25T06:33:46.028Z</time></trkpt><trkpt lat="43.803044947209635" lon="12.834498636091256"><ele>216.0</ele><time>2026-04-25T06:33:52.028Z</time></trkpt><trkpt lat="43.8030436905311" lon="12.834393776626468"><ele>216.0</ele><time>2026-04-25T06:34:00.028Z</time></trkpt><trkpt lat="43.80304203612506" lon="12.834300927409688"><ele>216.0</ele><time>2026-04-25T06:34:07.028Z</time></trkpt><trkpt lat="43.80303904280744" lon="12.834209047699051"><ele>216.0</ele><time>2026-04-25T06:34:16.028Z</time></trkpt><trkpt lat="43.80306811479846" lon="12.83411654649631"><ele>216.0</ele><time>2026-04-25T06:34:22.028Z</time></trkpt><trkpt lat="43.803110397439674" lon="12.834030299176336"><ele>216.0</ele><time>2026-04-25T06:34:29.028Z</time></trkpt><trkpt lat="43.8031644899645" lon="12.833956588207043"><ele>216.0</ele><time>2026-04-25T06:34:40.028Z</time></trkpt><trkpt lat="43.803214174596235" lon="12.833884735700012"><ele>217.85714285714286</ele><time>2026-04-25T06:34:48.028Z</time></trkpt><trkpt lat="43.80324870047647" lon="12.833802757169947"><ele>219.71428571428572</ele><time>2026-04-25T06:34:55.028Z</time></trkpt><trkpt lat="43.80327521621827" lon="12.833722474168765"><ele>221.57142857142856</ele><time>2026-04-25T06:35:03.028Z</time></trkpt><trkpt lat="43.803297154035675" lon="12.833632430672235"><ele>223.42857142857144</ele><time>2026-04-25T06:35:11.028Z</time></trkpt><trkpt lat="43.80331515694172" lon="12.833539710809223"><ele>225.2857142857143</ele><time>2026-04-25T06:35:18.028Z</time></trkpt><trkpt lat="43.80334425304737" lon="12.833459059354544"><ele>227.14285714285714</ele><time>2026-04-25T06:35:25.029Z</time></trkpt><trkpt lat="43.803341701463" lon="12.833358769595963"><ele>229.0</ele><time>2026-04-25T06:35:32.03Z</time></trkpt><trkpt lat="43.80333471279697" lon="12.833260979886024"><ele>231.0</ele><time>2026-04-25T06:35:39.03Z</time></trkpt><trkpt lat="43.80330025172064" lon="12.833180642947157"><ele>233.0</ele><time>2026-04-25T06:35:45.03Z</time></trkpt><trkpt lat="43.8032550203548" lon="12.833116115816916"><ele>235.0</ele><time>2026-04-25T06:35:52.03Z</time></trkpt><trkpt lat="43.8031960754394" lon="12.833072817254825"><ele>237.0</ele><time>2026-04-25T06:36:00.03Z</time></trkpt><trkpt lat="43.80313124255405" lon="12.833100398272668"><ele>239.0</ele><time>2026-04-25T06:36:06.03Z</time></trkpt><trkpt lat="43.803069528317685" lon="12.833145359542916"><ele>241.0</ele><time>2026-04-25T06:36:12.03Z</time></trkpt><trkpt lat="43.803007595085084" lon="12.833171504365204"><ele>243.0</ele><time>2026-04-25T06:36:19.03Z</time></trkpt><trkpt lat="43.802948273411836" lon="12.833208846119506"><ele>243.0</ele><time>2026-04-25T06:36:26.03Z</time></trkpt><trkpt lat="43.80288169854526" lon="12.833261015524132"><ele>243.0</ele><time>2026-04-25T06:36:32.03Z</time></trkpt><trkpt lat="43.802819986118074" lon="12.833298527182409"><ele>243.0</ele><time>2026-04-25T06:36:38.029Z</time></trkpt><trkpt lat="43.80275705803744" lon="12.833324922186703"><ele>243.0</ele><time>2026-04-25T06:36:46.029Z</time></trkpt><trkpt lat="43.80269748694049" lon="12.833366334499948"><ele>243.0</ele><time>2026-04-25T06:37:14.029Z</time></trkpt><trkpt lat="43.80263307595114" lon="12.833354956176205"><ele>243.0</ele><time>2026-04-25T06:37:26.029Z</time></trkpt><trkpt lat="43.80256599130871" lon="12.833349936974452"><ele>243.0</ele><time>2026-04-25T06:37:32.031Z</time></trkpt><trkpt lat="43.80250167086257" lon="12.833379005501769"><ele>244.71428571428572</ele><time>2026-04-25T06:37:48.031Z</time></trkpt><trkpt lat="43.802438626615384" lon="12.833430080827943"><ele>246.42857142857144</ele><time>2026-04-25T06:37:55.031Z</time></trkpt><trkpt lat="43.80238257109149" lon="12.83347212151267"><ele>248.14285714285717</ele><time>2026-04-25T06:38:01.031Z</time></trkpt><trkpt lat="43.80230842090948" lon="12.833499304925933"><ele>249.85714285714286</ele><time>2026-04-25T06:38:09.031Z</time></trkpt><trkpt lat="43.80225474031485" lon="12.833560961428995"><ele>251.5714285714286</ele><time>2026-04-25T06:38:17.031Z</time></trkpt><trkpt lat="43.80219798750598" lon="12.833601678666074"><ele>253.2857142857143</ele><time>2026-04-25T06:38:25.031Z</time></trkpt><trkpt lat="43.802147527551874" lon="12.833661627329098"><ele>255.0</ele><time>2026-04-25T06:38:37.031Z</time></trkpt><trkpt lat="43.802105717352745" lon="12.83373713545756"><ele>255.0</ele><time>2026-04-25T06:38:46.031Z</time></trkpt><trkpt lat="43.802058592476726" lon="12.833795436405842"><ele>255.00000000000003</ele><time>2026-04-25T06:38:53.031Z</time></trkpt><trkpt lat="43.802015958092326" lon="12.833874032478445"><ele>255.0</ele><time>2026-04-25T06:39:01.031Z</time></trkpt><trkpt lat="43.801973957050464" lon="12.833950083921422"><ele>255.0</ele><time>2026-04-25T06:39:07.031Z</time></trkpt><trkpt lat="43.8019378379131" lon="12.834022104072643"><ele>255.00000000000003</ele><time>2026-04-25T06:39:15.031Z</time></trkpt><trkpt lat="43.80189962876929" lon="12.834107798889479"><ele>255.0</ele><time>2026-04-25T06:39:22.031Z</time></trkpt><trkpt lat="43.80186023771005" lon="12.834186138983288"><ele>255.0</ele><time>2026-04-25T06:39:28.031Z</time></trkpt><trkpt lat="43.801834533154825" lon="12.834269094554944"><ele>259.2857142857143</ele><time>2026-04-25T06:39:33.031Z</time></trkpt><trkpt lat="43.80181701659394" lon="12.834354410984917"><ele>263.5714285714286</ele><time>2026-04-25T06:39:39.033Z</time></trkpt><trkpt lat="43.801794671828986" lon="12.834450619441034"><ele>267.8571428571429</ele><time>2026-04-25T06:39:49.033Z</time></trkpt><trkpt lat="43.80176930625107" lon="12.834545818810929"><ele>272.14285714285717</ele><time>2026-04-25T06:39:56.033Z</time></trkpt><trkpt lat="43.80173922950664" lon="12.834626697919836"><ele>276.42857142857144</ele><time>2026-04-25T06:40:02.033Z</time></trkpt><trkpt lat="43.801682016941584" lon="12.834689633500124"><ele>280.7142857142857</ele><time>2026-04-25T06:40:08.033Z</time></trkpt><trkpt lat="43.801614931737575" lon="12.834719525960871"><ele>285.0</ele><time>2026-04-25T06:40:15.033Z</time></trkpt><trkpt lat="43.80154485698711" lon="12.834713192867257"><ele>285.0</ele><time>2026-04-25T06:40:22.033Z</time></trkpt><trkpt lat="43.80147639020983" lon="12.83469302793725"><ele>285.0</ele><time>2026-04-25T06:40:28.033Z</time></trkpt><trkpt lat="43.801404072585534" lon="12.834671188952568"><ele>285.0</ele><time>2026-04-25T06:40:35.033Z</time></trkpt><trkpt lat="43.801340035913434" lon="12.834638049315748"><ele>285.0</ele><time>2026-04-25T06:40:43.033Z</time></trkpt><trkpt lat="43.80126694288893" lon="12.834618664472666"><ele>285.0</ele><time>2026-04-25T06:40:49.033Z</time></trkpt><trkpt lat="43.80120734297126" lon="12.834586206901879"><ele>285.0</ele><time>2026-04-25T06:40:56.032Z</time></trkpt><trkpt lat="43.8011405622374" lon="12.834578959993355"><ele>285.0</ele><time>2026-04-25T06:41:02.032Z</time></trkpt><trkpt lat="43.80107909632301" lon="12.83455657217148"><ele>285.0</ele><time>2026-04-25T06:41:08.032Z</time></trkpt><trkpt lat="43.80100436487946" lon="12.834551244256241"><ele>285.0</ele><time>2026-04-25T06:41:15.032Z</time></trkpt><trkpt lat="43.80094033825066" lon="12.834560418738846"><ele>285.0</ele><time>2026-04-25T06:41:21.032Z</time></trkpt><trkpt lat="43.80086996301329" lon="12.834562561618345"><ele>285.0</ele><time>2026-04-25T06:41:28.032Z</time></trkpt><trkpt lat="43.80079611205643" lon="12.834559971050236"><ele>285.0</ele><time>2026-04-25T06:41:34.032Z</time></trkpt><trkpt lat="43.800731358602874" lon="12.834561878427516"><ele>285.0</ele><time>2026-04-25T06:41:41.032Z</time></trkpt><trkpt lat="43.800661595417935" lon="12.834569320616598"><ele>285.0</ele><time>2026-04-25T06:41:58.035Z</time></trkpt><trkpt lat="43.80059984203497" lon="12.834596837716992"><ele>287.85714285714283</ele><time>2026-04-25T06:42:03.035Z</time></trkpt><trkpt lat="43.80052896879256" lon="12.83458815562689"><ele>290.7142857142857</ele><time>2026-04-25T06:42:10.035Z</time></trkpt><trkpt lat="43.8004545039001" lon="12.834583621094536"><ele>293.57142857142856</ele><time>2026-04-25T06:42:16.035Z</time></trkpt><trkpt lat="43.80038192296193" lon="12.834582216058978"><ele>296.42857142857144</ele><time>2026-04-25T06:42:23.035Z</time></trkpt><trkpt lat="43.80030942709758" lon="12.834598673197931"><ele>299.2857142857143</ele><time>2026-04-25T06:42:33.035Z</time></trkpt><trkpt lat="43.80024483950632" lon="12.834609013048913"><ele>302.14285714285717</ele><time>2026-04-25T06:42:40.035Z</time></trkpt><trkpt lat="43.80017400201574" lon="12.834609749529061"><ele>305.0</ele><time>2026-04-25T06:42:46.035Z</time></trkpt><trkpt lat="43.80010280776461" lon="12.834598923034383"><ele>305.0</ele><time>2026-04-25T06:42:53.035Z</time></trkpt><trkpt lat="43.80003828192426" lon="12.834618779969249"><ele>305.0</ele><time>2026-04-25T06:42:58.035Z</time></trkpt><trkpt lat="43.79996025804758" lon="12.834626421247965"><ele>305.0</ele><time>2026-04-25T06:43:04.035Z</time></trkpt><trkpt lat="43.79989803115453" lon="12.834642085276242"><ele>305.0</ele><time>2026-04-25T06:43:09.035Z</time></trkpt><trkpt lat="43.799831062205726" lon="12.834661117495623"><ele>305.0</ele><time>2026-04-25T06:43:14.035Z</time></trkpt><trkpt lat="43.79976481201855" lon="12.834675015101459"><ele>305.0</ele><time>2026-04-25T06:43:19.035Z</time></trkpt><trkpt lat="43.79970784434357" lon="12.834713766363949"><ele>305.0</ele><time>2026-04-25T06:43:24.035Z</time></trkpt><trkpt lat="43.79964923979879" lon="12.834748034341965"><ele>305.0</ele><time>2026-04-25T06:43:30.035Z</time></trkpt><trkpt lat="43.79957822824409" lon="12.83476149712309"><ele>305.0</ele><time>2026-04-25T06:43:36.035Z</time></trkpt><trkpt lat="43.79950607592168" lon="12.834782991418217"><ele>305.0</ele><time>2026-04-25T06:43:42.034Z</time></trkpt><trkpt lat="43.79944031684099" lon="12.834816203253592"><ele>305.0</ele><time>2026-04-25T06:43:47.034Z</time></trkpt><trkpt lat="43.799369424343894" lon="12.834831309329322"><ele>305.0</ele><time>2026-04-25T06:43:52.036Z</time></trkpt><trkpt lat="43.79930153863459" lon="12.834806057347263"><ele>305.0</ele><time>2026-04-25T06:43:58.036Z</time></trkpt><trkpt lat="43.79922205312227" lon="12.834788655485543"><ele>305.0</ele><time>2026-04-25T06:44:05.036Z</time></trkpt><trkpt lat="43.799155456238175" lon="12.834751223955681"><ele>304.8571428571429</ele><time>2026-04-25T06:44:11.036Z</time></trkpt><trkpt lat="43.79909064654446" lon="12.834704671957514"><ele>304.71428571428567</ele><time>2026-04-25T06:44:17.036Z</time></trkpt><trkpt lat="43.7990319459106" lon="12.834643920985965"><ele>304.57142857142856</ele><time>2026-04-25T06:44:22.036Z</time></trkpt><trkpt lat="43.79897181737064" lon="12.834603101867431"><ele>304.42857142857144</ele><time>2026-04-25T06:44:27.036Z</time></trkpt><trkpt lat="43.798912235329134" lon="12.834557653054565"><ele>304.28571428571433</ele><time>2026-04-25T06:44:32.036Z</time></trkpt><trkpt lat="43.798848046768704" lon="12.834509826387624"><ele>304.1428571428571</ele><time>2026-04-25T06:44:37.036Z</time></trkpt><trkpt lat="43.798794753832006" lon="12.834454084726437"><ele>304.0</ele><time>2026-04-25T06:44:42.036Z</time></trkpt><trkpt lat="43.7987379321572" lon="12.834399413028557"><ele>304.0</ele><time>2026-04-25T06:44:48.036Z</time></trkpt><trkpt lat="43.79867505730795" lon="12.834340551720718"><ele>304.0</ele><time>2026-04-25T06:44:58.036Z</time></trkpt><trkpt lat="43.79861138406594" lon="12.834312203996838"><ele>304.0</ele><time>2026-04-25T06:45:04.036Z</time></trkpt><trkpt lat="43.79853984847712" lon="12.83428356700597"><ele>304.0</ele><time>2026-04-25T06:46:15.037Z</time></trkpt><trkpt lat="43.79847490546869" lon="12.834281991642385"><ele>304.0</ele><time>2026-04-25T06:46:21.037Z</time></trkpt><trkpt lat="43.798406672016526" lon="12.834258216436739"><ele>304.0</ele><time>2026-04-25T06:46:30.037Z</time></trkpt><trkpt lat="43.79834193878084" lon="12.83423486529824"><ele>304.0</ele><time>2026-04-25T06:46:35.037Z</time></trkpt><trkpt lat="43.798266788188286" lon="12.83422790451426"><ele>306.4285714285714</ele><time>2026-04-25T06:46:41.037Z</time></trkpt><trkpt lat="43.798205940080564" lon="12.834202098399272"><ele>308.8571428571429</ele><time>2026-04-25T06:46:47.037Z</time></trkpt><trkpt lat="43.79814264543649" lon="12.834174116368088"><ele>311.2857142857143</ele><time>2026-04-25T06:46:54.037Z</time></trkpt><trkpt lat="43.79807786297617" lon="12.834139910535331"><ele>313.71428571428567</ele><time>2026-04-25T06:47:00.037Z</time></trkpt><trkpt lat="43.79801422059877" lon="12.834094183528372"><ele>316.1428571428571</ele><time>2026-04-25T06:47:09.037Z</time></trkpt><trkpt lat="43.79795655562143" lon="12.834051430178555"><ele>318.57142857142856</ele><time>2026-04-25T06:47:15.037Z</time></trkpt><trkpt lat="43.79789754782204" lon="12.834010145981896"><ele>321.0</ele><time>2026-04-25T06:47:22.037Z</time></trkpt><trkpt lat="43.797834560960325" lon="12.833961689355773"><ele>320.99999999999994</ele><time>2026-04-25T06:47:28.037Z</time></trkpt><trkpt lat="43.79777436607394" lon="12.833906512117077"><ele>321.0</ele><time>2026-04-25T06:47:35.037Z</time></trkpt><trkpt lat="43.79772087100348" lon="12.833843253347286"><ele>321.0</ele><time>2026-04-25T06:47:41.037Z</time></trkpt><trkpt lat="43.797673435733984" lon="12.833777368044423"><ele>321.0</ele><time>2026-04-25T06:47:48.037Z</time></trkpt><trkpt lat="43.79762611457661" lon="12.833708046426842"><ele>321.0</ele><time>2026-04-25T06:47:54.037Z</time></trkpt><trkpt lat="43.79757213137691" lon="12.833659570262956"><ele>320.99999999999994</ele><time>2026-04-25T06:48:01.039Z</time></trkpt><trkpt lat="43.79751457194873" lon="12.833600743517797"><ele>321.0</ele><time>2026-04-25T06:48:08.039Z</time></trkpt><trkpt lat="43.79747323863902" lon="12.833524041682512"><ele>323.99999999999994</ele><time>2026-04-25T06:48:14.039Z</time></trkpt><trkpt lat="43.797427015442835" lon="12.83346159975318"><ele>327.0</ele><time>2026-04-25T06:48:20.039Z</time></trkpt><trkpt lat="43.79737770206782" lon="12.833398294362835"><ele>330.0</ele><time>2026-04-25T06:48:26.039Z</time></trkpt><trkpt lat="43.79732878923234" lon="12.833324261716418"><ele>333.0</ele><time>2026-04-25T06:48:33.039Z</time></trkpt><trkpt lat="43.7972809740041" lon="12.833244348339367"><ele>336.0</ele><time>2026-04-25T06:48:40.039Z</time></trkpt><trkpt lat="43.79723606726979" lon="12.833177262638314"><ele>338.99999999999994</ele><time>2026-04-25T06:48:46.039Z</time></trkpt><trkpt lat="43.79719271620903" lon="12.833111752861894"><ele>342.0</ele><time>2026-04-25T06:48:54.039Z</time></trkpt><trkpt lat="43.79715290118759" lon="12.83304371052405"><ele>341.99999999999994</ele><time>2026-04-25T06:49:01.039Z</time></trkpt><trkpt lat="43.797089312859946" lon="12.833020080870114"><ele>342.0</ele><time>2026-04-25T06:49:22.039Z</time></trkpt><trkpt lat="43.79701949692278" lon="12.833023381994348"><ele>342.0</ele><time>2026-04-25T06:50:01.039Z</time></trkpt><trkpt lat="43.796962628894924" lon="12.832980828427337"><ele>342.0</ele><time>2026-04-25T06:51:04.04Z</time></trkpt><trkpt lat="43.79690002725027" lon="12.83296128316405"><ele>342.0</ele><time>2026-04-25T06:51:09.04Z</time></trkpt><trkpt lat="43.79683559403695" lon="12.832942249874696"><ele>341.99999999999994</ele><time>2026-04-25T06:51:15.04Z</time></trkpt><trkpt lat="43.7967774366519" lon="12.832905569550917"><ele>342.0</ele><time>2026-04-25T06:51:21.04Z</time></trkpt><trkpt lat="43.79671414261463" lon="12.83285289776044"><ele>342.85714285714283</ele><time>2026-04-25T06:51:27.04Z</time></trkpt><trkpt lat="43.796649671789815" lon="12.832834010857532"><ele>343.7142857142857</ele><time>2026-04-25T06:51:32.04Z</time></trkpt><trkpt lat="43.79658626941852" lon="12.832823379465099"><ele>344.57142857142856</ele><time>2026-04-25T06:51:38.04Z</time></trkpt><trkpt lat="43.79652343615396" lon="12.832802984619827"><ele>345.42857142857144</ele><time>2026-04-25T06:51:42.04Z</time></trkpt><trkpt lat="43.79644833207145" lon="12.832771656512525"><ele>346.2857142857143</ele><time>2026-04-25T06:51:47.04Z</time></trkpt><trkpt lat="43.796375479554456" lon="12.832754875430606"><ele>347.1428571428571</ele><time>2026-04-25T06:51:53.04Z</time></trkpt><trkpt lat="43.796309834535904" lon="12.832742669478355"><ele>348.0</ele><time>2026-04-25T06:51:59.04Z</time></trkpt><trkpt lat="43.7962392301168" lon="12.832728750056875"><ele>348.0</ele><time>2026-04-25T06:52:05.04Z</time></trkpt><trkpt lat="43.79616913857673" lon="12.832741836822782"><ele>348.0</ele><time>2026-04-25T06:52:11.04Z</time></trkpt><trkpt lat="43.79610226298452" lon="12.832757542078422"><ele>348.0</ele><time>2026-04-25T06:52:17.043Z</time></trkpt><trkpt lat="43.796029307683135" lon="12.832780301814681"><ele>348.0</ele><time>2026-04-25T06:52:24.042Z</time></trkpt><trkpt lat="43.79595831236206" lon="12.832804605554315"><ele>348.0</ele><time>2026-04-25T06:52:30.042Z</time></trkpt><trkpt lat="43.7958893310117" lon="12.832824134273602"><ele>348.0</ele><time>2026-04-25T06:52:36.042Z</time></trkpt><trkpt lat="43.79581575405537" lon="12.832845962404956"><ele>348.0</ele><time>2026-04-25T06:52:42.042Z</time></trkpt><trkpt lat="43.79575131720334" lon="12.8328651547599"><ele>350.0</ele><time>2026-04-25T06:52:47.042Z</time></trkpt><trkpt lat="43.79568156788842" lon="12.832874819352114"><ele>352.0</ele><time>2026-04-25T06:52:53.042Z</time></trkpt><trkpt lat="43.79561851770779" lon="12.832880504532124"><ele>354.0</ele><time>2026-04-25T06:52:58.042Z</time></trkpt><trkpt lat="43.79555537909536" lon="12.832885051685688"><ele>356.0</ele><time>2026-04-25T06:53:04.042Z</time></trkpt><trkpt lat="43.79548802973117" lon="12.832902279467381"><ele>358.0</ele><time>2026-04-25T06:53:11.042Z</time></trkpt><trkpt lat="43.795425645830946" lon="12.832864050889329"><ele>360.0</ele><time>2026-04-25T06:53:18.042Z</time></trkpt><trkpt lat="43.795415172048195" lon="12.832758057905448"><ele>362.0</ele><time>2026-04-25T06:53:23.042Z</time></trkpt><trkpt lat="43.79539640684184" lon="12.832662299002916"><ele>361.0</ele><time>2026-04-25T06:53:28.042Z</time></trkpt><trkpt lat="43.795385075801796" lon="12.832570141565373"><ele>360.0</ele><time>2026-04-25T06:53:33.042Z</time></trkpt><trkpt lat="43.795380285499306" lon="12.832468935611265"><ele>359.0</ele><time>2026-04-25T06:53:39.042Z</time></trkpt><trkpt lat="43.79536604814166" lon="12.832369115429684"><ele>358.0</ele><time>2026-04-25T06:53:44.042Z</time></trkpt><trkpt lat="43.795351583889364" lon="12.83227085582232"><ele>357.0</ele><time>2026-04-25T06:53:49.042Z</time></trkpt><trkpt lat="43.795349193082146" lon="12.83218102234648"><ele>356.0</ele><time>2026-04-25T06:53:54.042Z</time></trkpt><trkpt lat="43.79534624432211" lon="12.832093312973939"><ele>355.0</ele><time>2026-04-25T06:53:58.042Z</time></trkpt><trkpt lat="43.79533928219784" lon="12.831989973980285"><ele>355.0</ele><time>2026-04-25T06:54:03.041Z</time></trkpt><trkpt lat="43.79533259572028" lon="12.831877311281975"><ele>355.0</ele><time>2026-04-25T06:54:08.041Z</time></trkpt><trkpt lat="43.79532551812472" lon="12.831778894750506"><ele>355.0</ele><time>2026-04-25T06:54:14.041Z</time></trkpt><trkpt lat="43.795306197299325" lon="12.831681314317057"><ele>355.0</ele><time>2026-04-25T06:54:19.044Z</time></trkpt><trkpt lat="43.79530399883955" lon="12.831590755024191"><ele>355.0</ele><time>2026-04-25T06:54:25.044Z</time></trkpt><trkpt lat="43.79525417905703" lon="12.831529680181527"><ele>355.0</ele><time>2026-04-25T06:54:36.044Z</time></trkpt><trkpt lat="43.795224155397" lon="12.83145133234094"><ele>355.0</ele><time>2026-04-25T06:54:41.044Z</time></trkpt><trkpt lat="43.7951785498586" lon="12.831380154440803"><ele>356.42857142857144</ele><time>2026-04-25T06:54:48.044Z</time></trkpt><trkpt lat="43.7951252091893" lon="12.831307288312425"><ele>357.8571428571429</ele><time>2026-04-25T06:54:54.044Z</time></trkpt><trkpt lat="43.79506733393126" lon="12.831253402327992"><ele>359.28571428571433</ele><time>2026-04-25T06:54:59.044Z</time></trkpt><trkpt lat="43.795001620212865" lon="12.831220543003447"><ele>360.7142857142857</ele><time>2026-04-25T06:55:05.044Z</time></trkpt><trkpt lat="43.79492916264859" lon="12.831198619777412"><ele>362.14285714285717</ele><time>2026-04-25T06:55:10.044Z</time></trkpt><trkpt lat="43.79486252059976" lon="12.831169440048638"><ele>363.5714285714286</ele><time>2026-04-25T06:55:15.044Z</time></trkpt><trkpt lat="43.79480422885857" lon="12.83111711006366"><ele>365.0</ele><time>2026-04-25T06:55:21.044Z</time></trkpt><trkpt lat="43.794748237994305" lon="12.8310401450514"><ele>362.42857142857144</ele><time>2026-04-25T06:55:27.044Z</time></trkpt><trkpt lat="43.79469768999993" lon="12.83096450191271"><ele>359.8571428571429</ele><time>2026-04-25T06:55:31.044Z</time></trkpt><trkpt lat="43.79463962841222" lon="12.83091301342926"><ele>357.28571428571433</ele><time>2026-04-25T06:55:35.044Z</time></trkpt><trkpt lat="43.79457603114208" lon="12.830855209907439"><ele>354.7142857142857</ele><time>2026-04-25T06:55:41.044Z</time></trkpt><trkpt lat="43.79452452071505" lon="12.830795447083663"><ele>352.1428571428571</ele><time>2026-04-25T06:55:46.044Z</time></trkpt><trkpt lat="43.79447723156918" lon="12.830731284097727"><ele>349.5714285714286</ele><time>2026-04-25T06:55:50.044Z</time></trkpt><trkpt lat="43.79443119421132" lon="12.830658402757871"><ele>347.0</ele><time>2026-04-25T06:55:56.044Z</time></trkpt><trkpt lat="43.79437075929442" lon="12.830596038458193"><ele>347.5714285714286</ele><time>2026-04-25T06:56:02.044Z</time></trkpt><trkpt lat="43.79430659022688" lon="12.830561059398772"><ele>348.1428571428571</ele><time>2026-04-25T06:56:07.044Z</time></trkpt><trkpt lat="43.79423682928992" lon="12.830514582369208"><ele>348.7142857142857</ele><time>2026-04-25T06:56:12.044Z</time></trkpt><trkpt lat="43.79416831464546" lon="12.830469421814316"><ele>349.28571428571433</ele><time>2026-04-25T06:56:17.044Z</time></trkpt><trkpt lat="43.794099415275134" lon="12.830424955962295"><ele>349.8571428571429</ele><time>2026-04-25T06:56:23.044Z</time></trkpt><trkpt lat="43.79403926002476" lon="12.830397949604258"><ele>350.42857142857144</ele><time>2026-04-25T06:56:28.045Z</time></trkpt><trkpt lat="43.79396290276608" lon="12.830399254932699"><ele>351.0</ele><time>2026-04-25T06:56:33.046Z</time></trkpt><trkpt lat="43.793895165402766" lon="12.830427668497492"><ele>351.00000000000006</ele><time>2026-04-25T06:56:38.046Z</time></trkpt><trkpt lat="43.793832486091326" lon="12.83043714811188"><ele>351.0</ele><time>2026-04-25T06:56:43.046Z</time></trkpt><trkpt lat="43.793757957439794" lon="12.830439395431682"><ele>351.0</ele><time>2026-04-25T06:56:48.046Z</time></trkpt><trkpt lat="43.79370145431006" lon="12.830482055648499"><ele>351.0</ele><time>2026-04-25T06:56:53.046Z</time></trkpt><trkpt lat="43.79363897637637" lon="12.830507053339907"><ele>351.0</ele><time>2026-04-25T06:56:58.046Z</time></trkpt><trkpt lat="43.79357942038408" lon="12.83056225823853"><ele>351.00000000000006</ele><time>2026-04-25T06:57:03.046Z</time></trkpt><trkpt lat="43.79352766600824" lon="12.830633555790678"><ele>351.0</ele><time>2026-04-25T06:57:09.046Z</time></trkpt><trkpt lat="43.79347201137366" lon="12.830702078792465"><ele>350.14285714285717</ele><time>2026-04-25T06:57:14.046Z</time></trkpt><trkpt lat="43.79341430245129" lon="12.830764230421911"><ele>349.2857142857143</ele><time>2026-04-25T06:57:19.046Z</time></trkpt><trkpt lat="43.793376743464215" lon="12.830834796784528"><ele>348.42857142857144</ele><time>2026-04-25T06:57:24.046Z</time></trkpt><trkpt lat="43.79332001286734" lon="12.830893684895386"><ele>347.57142857142856</ele><time>2026-04-25T06:57:29.046Z</time></trkpt><trkpt lat="43.79327260408705" lon="12.830968348437063"><ele>346.7142857142857</ele><time>2026-04-25T06:57:35.046Z</time></trkpt><trkpt lat="43.79322452594194" lon="12.831029795651673"><ele>345.8571428571429</ele><time>2026-04-25T06:57:39.046Z</time></trkpt><trkpt lat="43.793167225110224" lon="12.831093962251883"><ele>345.0</ele><time>2026-04-25T06:57:44.046Z</time></trkpt><trkpt lat="43.79310753114634" lon="12.831154828524044"><ele>345.0</ele><time>2026-04-25T06:57:49.046Z</time></trkpt><trkpt lat="43.793055751847675" lon="12.831211442348454"><ele>345.0</ele><time>2026-04-25T06:57:53.046Z</time></trkpt><trkpt lat="43.79298861360814" lon="12.83121940698978"><ele>345.0</ele><time>2026-04-25T06:57:57.046Z</time></trkpt><trkpt lat="43.79291694158245" lon="12.831212386719486"><ele>345.0</ele><time>2026-04-25T06:58:02.046Z</time></trkpt><trkpt lat="43.792846287066055" lon="12.831193065187707"><ele>345.0</ele><time>2026-04-25T06:58:07.046Z</time></trkpt><trkpt lat="43.79277185330367" lon="12.83115778991151"><ele>345.0</ele><time>2026-04-25T06:58:13.046Z</time></trkpt><trkpt lat="43.7927012884349" lon="12.83112474723484"><ele>345.0</ele><time>2026-04-25T06:58:18.046Z</time></trkpt><trkpt lat="43.79269344361351" lon="12.831222296884725"><ele>345.0</ele><time>2026-04-25T06:58:27.046Z</time></trkpt><trkpt lat="43.79273174091913" lon="12.83130917889077"><ele>345.0</ele><time>2026-04-25T06:58:33.048Z</time></trkpt><trkpt lat="43.792778041830495" lon="12.831379013477871"><ele>345.0</ele><time>2026-04-25T06:58:39.047Z</time></trkpt><trkpt lat="43.79282979471883" lon="12.831431509341218"><ele>345.0</ele><time>2026-04-25T06:58:44.047Z</time></trkpt><trkpt lat="43.79288033970693" lon="12.831490595934227"><ele>345.0</ele><time>2026-04-25T06:58:48.047Z</time></trkpt><trkpt lat="43.79292767198516" lon="12.83155163894962"><ele>345.0</ele><time>2026-04-25T06:58:52.047Z</time></trkpt><trkpt lat="43.79297739824773" lon="12.83163452059271"><ele>345.0</ele><time>2026-04-25T06:58:58.047Z</time></trkpt><trkpt lat="43.79301101056215" lon="12.831716377712397"><ele>345.0</ele><time>2026-04-25T06:59:03.047Z</time></trkpt><trkpt lat="43.793043324655706" lon="12.831794909254695"><ele>345.0</ele><time>2026-04-25T06:59:08.047Z</time></trkpt><trkpt lat="43.793066050441844" lon="12.831889194818377"><ele>345.0</ele><time>2026-04-25T06:59:13.047Z</time></trkpt><trkpt lat="43.7930757314291" lon="12.831993420171806"><ele>345.0</ele><time>2026-04-25T06:59:19.047Z</time></trkpt><trkpt lat="43.79308297876406" lon="12.832084531539977"><ele>345.0</ele><time>2026-04-25T06:59:23.047Z</time></trkpt><trkpt lat="43.79309834198803" lon="12.832173798390764"><ele>345.0</ele><time>2026-04-25T06:59:28.047Z</time></trkpt><trkpt lat="43.793128562742666" lon="12.832276446019103"><ele>345.0</ele><time>2026-04-25T06:59:33.047Z</time></trkpt><trkpt lat="43.793147087436665" lon="12.83236365545173"><ele>344.0</ele><time>2026-04-25T06:59:36.047Z</time></trkpt><trkpt lat="43.79316185813133" lon="12.83245284896346"><ele>343.0</ele><time>2026-04-25T06:59:41.047Z</time></trkpt><trkpt lat="43.79317450466696" lon="12.832553228252978"><ele>342.0</ele><time>2026-04-25T06:59:48.047Z</time></trkpt><trkpt lat="43.793194008855046" lon="12.8326505806436"><ele>341.0</ele><time>2026-04-25T06:59:54.047Z</time></trkpt><trkpt lat="43.79318318326143" lon="12.832757332178032"><ele>340.0</ele><time>2026-04-25T06:59:59.047Z</time></trkpt><trkpt lat="43.79318815459348" lon="12.832860167611914"><ele>339.0</ele><time>2026-04-25T07:00:03.047Z</time></trkpt><trkpt lat="43.793207171353394" lon="12.832949035916325"><ele>338.0</ele><time>2026-04-25T07:00:07.047Z</time></trkpt><trkpt lat="43.79321921370715" lon="12.833055066268157"><ele>336.42857142857144</ele><time>2026-04-25T07:00:12.047Z</time></trkpt><trkpt lat="43.79323136768179" lon="12.83315553924253"><ele>334.85714285714283</ele><time>2026-04-25T07:00:17.047Z</time></trkpt><trkpt lat="43.79325997051486" lon="12.833250096973213"><ele>333.2857142857143</ele><time>2026-04-25T07:00:23.047Z</time></trkpt><trkpt lat="43.79329678737936" lon="12.833325229816763"><ele>331.7142857142857</ele><time>2026-04-25T07:00:28.047Z</time></trkpt><trkpt lat="43.79335779324171" lon="12.83339459961613"><ele>330.14285714285717</ele><time>2026-04-25T07:00:33.047Z</time></trkpt><trkpt lat="43.793410003870214" lon="12.833462107702143"><ele>328.57142857142856</ele><time>2026-04-25T07:00:37.049Z</time></trkpt><trkpt lat="43.793471425333706" lon="12.833532560128798"><ele>327.0</ele><time>2026-04-25T07:00:42.049Z</time></trkpt><trkpt lat="43.793525307671786" lon="12.833596283090605"><ele>326.1428571428571</ele><time>2026-04-25T07:00:48.049Z</time></trkpt><trkpt lat="43.793585271632644" lon="12.833651331827387"><ele>325.2857142857143</ele><time>2026-04-25T07:00:53.049Z</time></trkpt><trkpt lat="43.79364056474928" lon="12.833694426609295"><ele>324.42857142857144</ele><time>2026-04-25T07:00:58.049Z</time></trkpt><trkpt lat="43.7937024319141" lon="12.833732725391519"><ele>323.57142857142856</ele><time>2026-04-25T07:01:03.049Z</time></trkpt><trkpt lat="43.793765151561004" lon="12.83378100543605"><ele>322.7142857142857</ele><time>2026-04-25T07:01:09.049Z</time></trkpt><trkpt lat="43.79382570752534" lon="12.83383895228342"><ele>321.85714285714283</ele><time>2026-04-25T07:01:15.049Z</time></trkpt><trkpt lat="43.79389228408162" lon="12.833893801441224"><ele>321.0</ele><time>2026-04-25T07:01:20.049Z</time></trkpt><trkpt lat="43.793953739617244" lon="12.83393902795708"><ele>320.99999999999994</ele><time>2026-04-25T07:01:25.049Z</time></trkpt><trkpt lat="43.79402304843105" lon="12.83397238373508"><ele>321.0</ele><time>2026-04-25T07:01:30.049Z</time></trkpt><trkpt lat="43.79408261423309" lon="12.834019780828653"><ele>321.0</ele><time>2026-04-25T07:01:34.049Z</time></trkpt><trkpt lat="43.79415358374135" lon="12.83407126138119"><ele>321.0</ele><time>2026-04-25T07:01:39.049Z</time></trkpt><trkpt lat="43.79420752135293" lon="12.83411727322112"><ele>321.0</ele><time>2026-04-25T07:01:44.049Z</time></trkpt><trkpt lat="43.79424361801669" lon="12.834191491240933"><ele>320.99999999999994</ele><time>2026-04-25T07:01:49.049Z</time></trkpt><trkpt lat="43.794268910732455" lon="12.834276691318863"><ele>321.0</ele><time>2026-04-25T07:01:53.049Z</time></trkpt><trkpt lat="43.79430845616318" lon="12.83434818602719"><ele>321.2857142857143</ele><time>2026-04-25T07:01:58.049Z</time></trkpt><trkpt lat="43.79433124374519" lon="12.834446058793935"><ele>321.57142857142856</ele><time>2026-04-25T07:02:03.049Z</time></trkpt><trkpt lat="43.79435138609884" lon="12.834529859193616"><ele>321.8571428571429</ele><time>2026-04-25T07:02:09.049Z</time></trkpt><trkpt lat="43.79437750369308" lon="12.834624132507441"><ele>322.1428571428571</ele><time>2026-04-25T07:02:14.049Z</time></trkpt><trkpt lat="43.79439962620511" lon="12.834710221469546"><ele>322.42857142857144</ele><time>2026-04-25T07:02:18.049Z</time></trkpt><trkpt lat="43.794430029387975" lon="12.83478966241436"><ele>322.7142857142857</ele><time>2026-04-25T07:02:23.049Z</time></trkpt><trkpt lat="43.794457579462616" lon="12.834882786170713"><ele>323.0</ele><time>2026-04-25T07:02:28.049Z</time></trkpt><trkpt lat="43.79446820918131" lon="12.834977589891949"><ele>323.00000000000006</ele><time>2026-04-25T07:02:33.049Z</time></trkpt><trkpt lat="43.79444919491987" lon="12.83507108567732"><ele>323.0</ele><time>2026-04-25T07:02:37.049Z</time></trkpt><trkpt lat="43.79447527531839" lon="12.835156001089533"><ele>323.0</ele><time>2026-04-25T07:02:43.05Z</time></trkpt><trkpt lat="43.79449433063747" lon="12.835261967147572"><ele>323.0</ele><time>2026-04-25T07:02:49.05Z</time></trkpt><trkpt lat="43.79449897276806" lon="12.835364789533774"><ele>323.0</ele><time>2026-04-25T07:02:55.051Z</time></trkpt><trkpt lat="43.79447088230314" lon="12.835451789805887"><ele>323.00000000000006</ele><time>2026-04-25T07:03:00.051Z</time></trkpt><trkpt lat="43.794401026886945" lon="12.83546041565956"><ele>323.0</ele><time>2026-04-25T07:03:05.051Z</time></trkpt><trkpt lat="43.79434002009108" lon="12.835428202372613"><ele>318.5714285714286</ele><time>2026-04-25T07:03:11.051Z</time></trkpt><trkpt lat="43.79427673971523" lon="12.835406894524162"><ele>314.14285714285717</ele><time>2026-04-25T07:03:18.051Z</time></trkpt><trkpt lat="43.79422320672901" lon="12.835339776361163"><ele>309.7142857142857</ele><time>2026-04-25T07:03:24.051Z</time></trkpt><trkpt lat="43.794172796428676" lon="12.835275011824333"><ele>305.28571428571433</ele><time>2026-04-25T07:03:28.051Z</time></trkpt><trkpt lat="43.79410303129221" lon="12.835230770157427"><ele>300.8571428571429</ele><time>2026-04-25T07:03:33.051Z</time></trkpt><trkpt lat="43.79406228751224" lon="12.835299583217447"><ele>296.42857142857144</ele><time>2026-04-25T07:05:00.053Z</time></trkpt><trkpt lat="43.79407987279003" lon="12.835389201861714"><ele>292.0</ele><time>2026-04-25T07:05:11.053Z</time></trkpt><trkpt lat="43.79410308841712" lon="12.835490961273951"><ele>292.0</ele><time>2026-04-25T07:05:17.053Z</time></trkpt><trkpt lat="43.794138633286096" lon="12.83557504596582"><ele>292.0</ele><time>2026-04-25T07:05:22.053Z</time></trkpt><trkpt lat="43.79417035396518" lon="12.835654681692613"><ele>292.0</ele><time>2026-04-25T07:05:25.052Z</time></trkpt><trkpt lat="43.79415715046676" lon="12.83574295408182"><ele>292.0</ele><time>2026-04-25T07:05:30.052Z</time></trkpt><trkpt lat="43.79412297410286" lon="12.835835190902886"><ele>292.0</ele><time>2026-04-25T07:05:34.052Z</time></trkpt><trkpt lat="43.794081573920046" lon="12.835907293618199"><ele>292.0</ele><time>2026-04-25T07:05:38.052Z</time></trkpt><trkpt lat="43.79403212338057" lon="12.835984214405437"><ele>292.0</ele><time>2026-04-25T07:05:43.052Z</time></trkpt><trkpt lat="43.793981307003854" lon="12.836049196778307"><ele>289.0</ele><time>2026-04-25T07:05:47.052Z</time></trkpt><trkpt lat="43.79393361131132" lon="12.836117362032983"><ele>286.0</ele><time>2026-04-25T07:05:52.052Z</time></trkpt><trkpt lat="43.79387032012076" lon="12.836201706609499"><ele>283.0</ele><time>2026-04-25T07:05:56.052Z</time></trkpt><trkpt lat="43.793815063266955" lon="12.83624842284085"><ele>280.0</ele><time>2026-04-25T07:05:59.052Z</time></trkpt><trkpt lat="43.7937745868635" lon="12.836320913102767"><ele>277.0</ele><time>2026-04-25T07:06:02.052Z</time></trkpt><trkpt lat="43.7937350471727" lon="12.836416699291439"><ele>274.0</ele><time>2026-04-25T07:06:06.052Z</time></trkpt><trkpt lat="43.79372376856773" lon="12.836519817092922"><ele>271.0</ele><time>2026-04-25T07:06:10.052Z</time></trkpt><trkpt lat="43.793699225924215" lon="12.836611834301605"><ele>271.0</ele><time>2026-04-25T07:06:14.052Z</time></trkpt><trkpt lat="43.79371210160744" lon="12.836717825241333"><ele>271.0</ele><time>2026-04-25T07:06:18.052Z</time></trkpt><trkpt lat="43.79370970254316" lon="12.836826584976471"><ele>271.0</ele><time>2026-04-25T07:06:22.052Z</time></trkpt><trkpt lat="43.79374095928345" lon="12.836919889312698"><ele>271.0</ele><time>2026-04-25T07:06:26.052Z</time></trkpt><trkpt lat="43.79378806124044" lon="12.836996985949066"><ele>271.0</ele><time>2026-04-25T07:06:30.052Z</time></trkpt><trkpt lat="43.79382999999477" lon="12.837072027383423"><ele>271.0</ele><time>2026-04-25T07:06:34.052Z</time></trkpt><trkpt lat="43.7938920741012" lon="12.837126686827654"><ele>271.0</ele><time>2026-04-25T07:06:38.052Z</time></trkpt><trkpt lat="43.793958694874334" lon="12.837172415295484"><ele>268.1428571428571</ele><time>2026-04-25T07:06:42.052Z</time></trkpt><trkpt lat="43.79403013175664" lon="12.837196300315894"><ele>265.2857142857143</ele><time>2026-04-25T07:06:46.052Z</time></trkpt><trkpt lat="43.79410307434912" lon="12.83720644530741"><ele>262.42857142857144</ele><time>2026-04-25T07:06:50.052Z</time></trkpt><trkpt lat="43.79416585458759" lon="12.83719421913875"><ele>259.57142857142856</ele><time>2026-04-25T07:06:56.054Z</time></trkpt><trkpt lat="43.794238912561674" lon="12.83714989528576"><ele>256.7142857142857</ele><time>2026-04-25T07:07:00.054Z</time></trkpt><trkpt lat="43.79430680135572" lon="12.837106435174732"><ele>253.85714285714283</ele><time>2026-04-25T07:07:04.054Z</time></trkpt><trkpt lat="43.79437878247014" lon="12.837072708571492"><ele>250.99999999999997</ele><time>2026-04-25T07:07:08.054Z</time></trkpt><trkpt lat="43.79444284195613" lon="12.837038007659062"><ele>250.71428571428567</ele><time>2026-04-25T07:07:12.054Z</time></trkpt><trkpt lat="43.794514773363794" lon="12.836993476132912"><ele>250.42857142857142</ele><time>2026-04-25T07:07:16.054Z</time></trkpt><trkpt lat="43.79459029055791" lon="12.83696602421523"><ele>250.1428571428571</ele><time>2026-04-25T07:07:20.054Z</time></trkpt><trkpt lat="43.794664871832964" lon="12.83694105975317"><ele>249.85714285714283</ele><time>2026-04-25T07:07:24.054Z</time></trkpt><trkpt lat="43.79473120789638" lon="12.836927249875425"><ele>249.57142857142856</ele><time>2026-04-25T07:07:28.054Z</time></trkpt><trkpt lat="43.79479800889668" lon="12.836951387534686"><ele>249.28571428571428</ele><time>2026-04-25T07:07:32.054Z</time></trkpt><trkpt lat="43.79486686803152" lon="12.836972356608635"><ele>249.0</ele><time>2026-04-25T07:07:38.054Z</time></trkpt><trkpt lat="43.79489052149006" lon="12.83706239456665"><ele>249.0</ele><time>2026-04-25T07:07:45.054Z</time></trkpt><trkpt lat="43.79488966862774" lon="12.837166225382372"><ele>248.99999999999997</ele><time>2026-04-25T07:07:50.054Z</time></trkpt><trkpt lat="43.79488828481684" lon="12.837254066020174"><ele>249.0</ele><time>2026-04-25T07:07:54.054Z</time></trkpt><trkpt lat="43.794890589728105" lon="12.837344252043437"><ele>249.0</ele><time>2026-04-25T07:08:04.054Z</time></trkpt><trkpt lat="43.79488558114904" lon="12.83743367318679"><ele>248.99999999999997</ele><time>2026-04-25T07:08:09.054Z</time></trkpt><trkpt lat="43.79486694715028" lon="12.83752510121923"><ele>249.0</ele><time>2026-04-25T07:08:15.054Z</time></trkpt><trkpt lat="43.794835749327774" lon="12.8376120467861"><ele>249.0</ele><time>2026-04-25T07:08:22.054Z</time></trkpt><trkpt lat="43.79478986823885" lon="12.837680658418115"><ele>246.42857142857142</ele><time>2026-04-25T07:08:32.051Z</time></trkpt><trkpt lat="43.794755100106904" lon="12.83776868855285"><ele>243.85714285714283</ele><time>2026-04-25T07:08:38.049Z</time></trkpt><trkpt lat="43.794716427605216" lon="12.837845230880502"><ele>241.28571428571428</ele><time>2026-04-25T07:08:44.049Z</time></trkpt><trkpt lat="43.79469474094386" lon="12.837941553378267"><ele>238.71428571428572</ele><time>2026-04-25T07:08:50.048Z</time></trkpt><trkpt lat="43.79466906667003" lon="12.838025574558316"><ele>236.14285714285714</ele><time>2026-04-25T07:08:55.048Z</time></trkpt><trkpt lat="43.79463570995067" lon="12.838107870910518"><ele>233.57142857142856</ele><time>2026-04-25T07:09:01.05Z</time></trkpt><trkpt lat="43.79461164290846" lon="12.838199598958514"><ele>231.0</ele><time>2026-04-25T07:09:07.049Z</time></trkpt><trkpt lat="43.794593944509586" lon="12.838303096518601"><ele>231.0</ele><time>2026-04-25T07:09:13.049Z</time></trkpt><trkpt lat="43.794614596227824" lon="12.838410085267945"><ele>231.0</ele><time>2026-04-25T07:09:20.049Z</time></trkpt><trkpt lat="43.79463334180253" lon="12.83849715497233"><ele>231.0</ele><time>2026-04-25T07:09:25.049Z</time></trkpt><trkpt lat="43.79464779420349" lon="12.838598663104287"><ele>231.0</ele><time>2026-04-25T07:09:30.049Z</time></trkpt><trkpt lat="43.79467750865496" lon="12.838686865534468"><ele>231.0</ele><time>2026-04-25T07:09:35.049Z</time></trkpt><trkpt lat="43.79467903025833" lon="12.83878138834605"><ele>231.0</ele><time>2026-04-25T07:09:40.049Z</time></trkpt><trkpt lat="43.79466693714025" lon="12.838882278529702"><ele>231.0</ele><time>2026-04-25T07:09:45.049Z</time></trkpt><trkpt lat="43.794624139035534" lon="12.838951064641817"><ele>228.0</ele><time>2026-04-25T07:09:49.048Z</time></trkpt><trkpt lat="43.7945567374932" lon="12.83896357815049"><ele>225.0</ele><time>2026-04-25T07:09:55.048Z</time></trkpt><trkpt lat="43.794493659053764" lon="12.838957897378807"><ele>222.0</ele><time>2026-04-25T07:10:00.048Z</time></trkpt><trkpt lat="43.794422982065214" lon="12.838939243040844"><ele>219.0</ele><time>2026-04-25T07:10:05.048Z</time></trkpt><trkpt lat="43.79434793216299" lon="12.838935410278085"><ele>216.0</ele><time>2026-04-25T07:10:10.048Z</time></trkpt><trkpt lat="43.794287610690894" lon="12.838909885389077"><ele>213.0</ele><time>2026-04-25T07:10:14.048Z</time></trkpt><trkpt lat="43.79420597933332" lon="12.838886916316213"><ele>210.0</ele><time>2026-04-25T07:10:18.048Z</time></trkpt><trkpt lat="43.7941549571088" lon="12.83883122243241"><ele>209.42857142857142</ele><time>2026-04-25T07:10:23.048Z</time></trkpt><trkpt lat="43.7940863188556" lon="12.838833789777624"><ele>208.85714285714286</ele><time>2026-04-25T07:10:28.048Z</time></trkpt><trkpt lat="43.794011267667834" lon="12.838865542893696"><ele>208.28571428571428</ele><time>2026-04-25T07:10:32.048Z</time></trkpt><trkpt lat="43.79396626012255" lon="12.838931453319933"><ele>207.71428571428572</ele><time>2026-04-25T07:10:36.048Z</time></trkpt><trkpt lat="43.79398574055722" lon="12.83902250753609"><ele>207.14285714285714</ele><time>2026-04-25T07:10:40.048Z</time></trkpt><trkpt lat="43.79400546167614" lon="12.839112864756853"><ele>206.57142857142856</ele><time>2026-04-25T07:10:45.048Z</time></trkpt><trkpt lat="43.7940284166015" lon="12.839206452370686"><ele>206.0</ele><time>2026-04-25T07:10:50.048Z</time></trkpt><trkpt lat="43.79407131696997" lon="12.839287673318944"><ele>203.7142857142857</ele><time>2026-04-25T07:10:55.048Z</time></trkpt><trkpt lat="43.79410251465662" lon="12.839366791691372"><ele>201.42857142857142</ele><time>2026-04-25T07:11:00.048Z</time></trkpt><trkpt lat="43.7941448931243" lon="12.839444102305304"><ele>199.14285714285714</ele><time>2026-04-25T07:11:07.051Z</time></trkpt><trkpt lat="43.79418853327529" lon="12.839519350802421"><ele>196.85714285714283</ele><time>2026-04-25T07:11:15.05Z</time></trkpt><trkpt lat="43.79423465457343" lon="12.839586872882231"><ele>194.57142857142858</ele><time>2026-04-25T07:11:20.05Z</time></trkpt><trkpt lat="43.79426154660216" lon="12.839682409257641"><ele>192.28571428571428</ele><time>2026-04-25T07:11:26.05Z</time></trkpt><trkpt lat="43.7942994502331" lon="12.839759408322177"><ele>190.0</ele><time>2026-04-25T07:11:31.05Z</time></trkpt><trkpt lat="43.79434903397084" lon="12.83983385460609"><ele>190.0</ele><time>2026-04-25T07:11:36.05Z</time></trkpt><trkpt lat="43.79440518462246" lon="12.839884272094157"><ele>190.0</ele><time>2026-04-25T07:11:41.05Z</time></trkpt><trkpt lat="43.7944667448912" lon="12.839924668077913"><ele>190.0</ele><time>2026-04-25T07:11:45.05Z</time></trkpt><trkpt lat="43.79452693947267" lon="12.839979952148921"><ele>190.0</ele><time>2026-04-25T07:11:50.05Z</time></trkpt><trkpt lat="43.79458630198703" lon="12.840040460970547"><ele>190.0</ele><time>2026-04-25T07:11:56.05Z</time></trkpt><trkpt lat="43.79464116704313" lon="12.840083688096868"><ele>190.0</ele><time>2026-04-25T07:12:00.05Z</time></trkpt><trkpt lat="43.794708480095856" lon="12.84013395009098"><ele>190.0</ele><time>2026-04-25T07:12:04.05Z</time></trkpt><trkpt lat="43.794780447436324" lon="12.840165495063427"><ele>188.0</ele><time>2026-04-25T07:12:08.05Z</time></trkpt><trkpt lat="43.79484833512207" lon="12.840176368613468"><ele>186.0</ele><time>2026-04-25T07:12:12.05Z</time></trkpt><trkpt lat="43.794926343268735" lon="12.840162122653656"><ele>184.0</ele><time>2026-04-25T07:12:17.05Z</time></trkpt><trkpt lat="43.79499566750457" lon="12.84016672117454"><ele>182.0</ele><time>2026-04-25T07:12:21.05Z</time></trkpt><trkpt lat="43.79505215549811" lon="12.840225645717792"><ele>180.0</ele><time>2026-04-25T07:12:25.05Z</time></trkpt><trkpt lat="43.79503545849348" lon="12.840322049124097"><ele>178.0</ele><time>2026-04-25T07:12:30.05Z</time></trkpt><trkpt lat="43.79498841297902" lon="12.840385987036141"><ele>176.0</ele><time>2026-04-25T07:12:35.05Z</time></trkpt><trkpt lat="43.794923339509126" lon="12.840417948291314"><ele>176.0</ele><time>2026-04-25T07:12:40.05Z</time></trkpt><trkpt lat="43.794870562034646" lon="12.840465924846258"><ele>176.0</ele><time>2026-04-25T07:12:45.05Z</time></trkpt><trkpt lat="43.79481036347795" lon="12.84052679730314"><ele>176.0</ele><time>2026-04-25T07:12:50.05Z</time></trkpt><trkpt lat="43.794748275711875" lon="12.840579641663608"><ele>176.0</ele><time>2026-04-25T07:12:55.05Z</time></trkpt><trkpt lat="43.79469017003702" lon="12.840639975458396"><ele>176.0</ele><time>2026-04-25T07:13:00.05Z</time></trkpt><trkpt lat="43.79462613494162" lon="12.840693918074752"><ele>176.0</ele><time>2026-04-25T07:13:04.05Z</time></trkpt><trkpt lat="43.79455580665761" lon="12.840718412410252"><ele>176.0</ele><time>2026-04-25T07:13:10.052Z</time></trkpt><trkpt lat="43.79448028849491" lon="12.840729749311974"><ele>176.0</ele><time>2026-04-25T07:13:15.052Z</time></trkpt><trkpt lat="43.7944181143279" lon="12.840761889502016"><ele>176.0</ele><time>2026-04-25T07:13:19.052Z</time></trkpt><trkpt lat="43.794357283282324" lon="12.840815143108792"><ele>176.0</ele><time>2026-04-25T07:13:25.051Z</time></trkpt><trkpt lat="43.79429709054909" lon="12.840879673112811"><ele>176.0</ele><time>2026-04-25T07:13:29.051Z</time></trkpt><trkpt lat="43.79423596117104" lon="12.840935353039868"><ele>176.0</ele><time>2026-04-25T07:13:33.051Z</time></trkpt><trkpt lat="43.794190189072296" lon="12.84102222100721"><ele>176.0</ele><time>2026-04-25T07:13:38.051Z</time></trkpt><trkpt lat="43.794154678499865" lon="12.841111632656283"><ele>176.0</ele><time>2026-04-25T07:13:44.051Z</time></trkpt><trkpt lat="43.794183986510674" lon="12.841203254510615"><ele>175.28571428571428</ele><time>2026-04-25T07:13:48.051Z</time></trkpt><trkpt lat="43.794214150846614" lon="12.841292474777225"><ele>174.57142857142856</ele><time>2026-04-25T07:13:53.051Z</time></trkpt><trkpt lat="43.79425039761408" lon="12.841375271217586"><ele>173.85714285714283</ele><time>2026-04-25T07:13:58.051Z</time></trkpt><trkpt lat="43.79430878106833" lon="12.841428377270294"><ele>173.14285714285714</ele><time>2026-04-25T07:14:03.051Z</time></trkpt><trkpt lat="43.79438240847089" lon="12.841451791084497"><ele>172.42857142857142</ele><time>2026-04-25T07:14:09.051Z</time></trkpt><trkpt lat="43.79445131823289" lon="12.841457162302316"><ele>171.7142857142857</ele><time>2026-04-25T07:14:14.051Z</time></trkpt><trkpt lat="43.79451772122502" lon="12.841483177394778"><ele>171.0</ele><time>2026-04-25T07:14:18.051Z</time></trkpt><trkpt lat="43.79458239828344" lon="12.841488906785916"><ele>170.99999999999997</ele><time>2026-04-25T07:14:24.051Z</time></trkpt><trkpt lat="43.79465887626636" lon="12.841502732550605"><ele>171.0</ele><time>2026-04-25T07:14:28.051Z</time></trkpt><trkpt lat="43.79471896931832" lon="12.841531472093676"><ele>171.0</ele><time>2026-04-25T07:14:32.051Z</time></trkpt><trkpt lat="43.794802231591135" lon="12.841557874622994"><ele>171.0</ele><time>2026-04-25T07:14:38.051Z</time></trkpt><trkpt lat="43.79486720757015" lon="12.841565332354886"><ele>171.0</ele><time>2026-04-25T07:14:42.051Z</time></trkpt><trkpt lat="43.79492487317839" lon="12.841602200859715"><ele>170.99999999999997</ele><time>2026-04-25T07:14:47.051Z</time></trkpt><trkpt lat="43.79498425412697" lon="12.841663633784677"><ele>171.0</ele><time>2026-04-25T07:14:52.051Z</time></trkpt><trkpt lat="43.79504577058685" lon="12.841688230698239"><ele>170.99999999999997</ele><time>2026-04-25T07:14:58.051Z</time></trkpt><trkpt lat="43.795110403634474" lon="12.841742668295947"><ele>171.0</ele><time>2026-04-25T07:15:02.051Z</time></trkpt><trkpt lat="43.795158884270386" lon="12.84182032211978"><ele>171.0</ele><time>2026-04-25T07:15:08.051Z</time></trkpt><trkpt lat="43.795184676317895" lon="12.841919144491499"><ele>171.0</ele><time>2026-04-25T07:15:14.051Z</time></trkpt><trkpt lat="43.795213770548045" lon="12.842016591152209"><ele>171.0</ele><time>2026-04-25T07:15:19.053Z</time></trkpt><trkpt lat="43.79524839243908" lon="12.842100075697592"><ele>170.99999999999997</ele><time>2026-04-25T07:15:24.052Z</time></trkpt><trkpt lat="43.79531298215622" lon="12.842151776753667"><ele>171.0</ele><time>2026-04-25T07:15:29.053Z</time></trkpt><trkpt lat="43.795364433782595" lon="12.84220957027719"><ele>170.99999999999997</ele><time>2026-04-25T07:15:36.053Z</time></trkpt><trkpt lat="43.79542593417778" lon="12.842254162246824"><ele>171.0</ele><time>2026-04-25T07:15:41.053Z</time></trkpt><trkpt lat="43.79548067939897" lon="12.842301486849928"><ele>171.0</ele><time>2026-04-25T07:15:46.053Z</time></trkpt><trkpt lat="43.795534383642355" lon="12.842361965952522"><ele>171.0</ele><time>2026-04-25T07:15:52.053Z</time></trkpt><trkpt lat="43.79559854293744" lon="12.842400401930197"><ele>171.0</ele><time>2026-04-25T07:15:57.053Z</time></trkpt><trkpt lat="43.795654539764435" lon="12.842441434583739"><ele>170.99999999999997</ele><time>2026-04-25T07:16:02.052Z</time></trkpt><trkpt lat="43.795718269458085" lon="12.84248034877445"><ele>171.0</ele><time>2026-04-25T07:16:08.052Z</time></trkpt><trkpt lat="43.79577291043671" lon="12.842530553412281"><ele>170.99999999999997</ele><time>2026-04-25T07:16:13.052Z</time></trkpt><trkpt lat="43.79583950791979" lon="12.842579393861886"><ele>171.0</ele><time>2026-04-25T07:16:18.052Z</time></trkpt><trkpt lat="43.79587865124358" lon="12.842651050254835"><ele>171.0</ele><time>2026-04-25T07:16:24.052Z</time></trkpt><trkpt lat="43.79592202823049" lon="12.842718441512998"><ele>171.0</ele><time>2026-04-25T07:16:30.052Z</time></trkpt><trkpt lat="43.795961843805784" lon="12.842797345331185"><ele>171.0</ele><time>2026-04-25T07:16:34.052Z</time></trkpt><trkpt lat="43.79597679165855" lon="12.84288586369721"><ele>170.99999999999997</ele><time>2026-04-25T07:16:40.052Z</time></trkpt><trkpt lat="43.7960276393076" lon="12.84294099332319"><ele>171.0</ele><time>2026-04-25T07:16:46.052Z</time></trkpt><trkpt lat="43.79608143064158" lon="12.843007227730135"><ele>170.57142857142856</ele><time>2026-04-25T07:16:51.052Z</time></trkpt><trkpt lat="43.796108575806976" lon="12.843095131059025"><ele>170.14285714285714</ele><time>2026-04-25T07:16:56.052Z</time></trkpt><trkpt lat="43.79615461763985" lon="12.843172557699853"><ele>169.71428571428572</ele><time>2026-04-25T07:17:02.052Z</time></trkpt><trkpt lat="43.79620984981257" lon="12.843236234284122"><ele>169.28571428571428</ele><time>2026-04-25T07:17:07.052Z</time></trkpt><trkpt lat="43.796260282993224" lon="12.843310384628708"><ele>168.85714285714286</ele><time>2026-04-25T07:17:15.052Z</time></trkpt><trkpt lat="43.796321813898196" lon="12.843343936802095"><ele>168.42857142857142</ele><time>2026-04-25T07:17:19.052Z</time></trkpt><trkpt lat="43.79639008394812" lon="12.843369027879902"><ele>168.0</ele><time>2026-04-25T07:17:24.054Z</time></trkpt><trkpt lat="43.79646048591284" lon="12.843393526291804"><ele>168.0</ele><time>2026-04-25T07:17:30.054Z</time></trkpt><trkpt lat="43.79652146563739" lon="12.843420767907702"><ele>168.0</ele><time>2026-04-25T07:17:36.054Z</time></trkpt><trkpt lat="43.796601322874906" lon="12.843434797579842"><ele>168.0</ele><time>2026-04-25T07:17:42.054Z</time></trkpt><trkpt lat="43.79667113610479" lon="12.843434964540622"><ele>168.0</ele><time>2026-04-25T07:17:47.054Z</time></trkpt><trkpt lat="43.79674813685402" lon="12.843437706929443"><ele>168.0</ele><time>2026-04-25T07:17:52.054Z</time></trkpt><trkpt lat="43.79681580856478" lon="12.84345492341041"><ele>168.0</ele><time>2026-04-25T07:17:57.054Z</time></trkpt><trkpt lat="43.796874844352594" lon="12.8434993214572"><ele>168.0</ele><time>2026-04-25T07:18:02.054Z</time></trkpt><trkpt lat="43.79694254912207" lon="12.84356614311608"><ele>167.42857142857142</ele><time>2026-04-25T07:18:07.054Z</time></trkpt><trkpt lat="43.79699419593704" lon="12.84365210840037"><ele>166.85714285714286</ele><time>2026-04-25T07:18:12.054Z</time></trkpt><trkpt lat="43.79702503708037" lon="12.843735927220822"><ele>166.28571428571428</ele><time>2026-04-25T07:18:17.054Z</time></trkpt><trkpt lat="43.7970349474056" lon="12.843841114529972"><ele>165.71428571428572</ele><time>2026-04-25T07:18:22.054Z</time></trkpt><trkpt lat="43.7970240761864" lon="12.843949382295774"><ele>165.14285714285714</ele><time>2026-04-25T07:18:27.054Z</time></trkpt><trkpt lat="43.79702624415213" lon="12.84404437861391"><ele>164.57142857142856</ele><time>2026-04-25T07:18:31.054Z</time></trkpt><trkpt lat="43.79699888991361" lon="12.844126713487615"><ele>164.0</ele><time>2026-04-25T07:18:35.054Z</time></trkpt><trkpt lat="43.796977993317846" lon="12.844216962663804"><ele>164.42857142857142</ele><time>2026-04-25T07:18:40.054Z</time></trkpt><trkpt lat="43.79695782899835" lon="12.84430273615427"><ele>164.85714285714286</ele><time>2026-04-25T07:18:45.054Z</time></trkpt><trkpt lat="43.79693270203292" lon="12.844399149152334"><ele>165.28571428571428</ele><time>2026-04-25T07:18:50.054Z</time></trkpt><trkpt lat="43.7968891060778" lon="12.844487324140674"><ele>165.71428571428572</ele><time>2026-04-25T07:18:54.054Z</time></trkpt><trkpt lat="43.7968501790589" lon="12.84456999408399"><ele>166.14285714285714</ele><time>2026-04-25T07:18:59.054Z</time></trkpt><trkpt lat="43.79680771352796" lon="12.844654796994533"><ele>166.57142857142856</ele><time>2026-04-25T07:19:05.053Z</time></trkpt><trkpt lat="43.79676464580176" lon="12.844720373277637"><ele>167.0</ele><time>2026-04-25T07:19:10.053Z</time></trkpt><trkpt lat="43.79671235438218" lon="12.844805528312339"><ele>167.0</ele><time>2026-04-25T07:19:17.053Z</time></trkpt><trkpt lat="43.79667166597706" lon="12.84488816092791"><ele>167.0</ele><time>2026-04-25T07:19:23.053Z</time></trkpt><trkpt lat="43.79663676293207" lon="12.844968315966813"><ele>167.0</ele><time>2026-04-25T07:19:29.055Z</time></trkpt><trkpt lat="43.79660242925116" lon="12.845051675964267"><ele>167.0</ele><time>2026-04-25T07:19:36.056Z</time></trkpt><trkpt lat="43.79661905666981" lon="12.84515249988241"><ele>167.0</ele><time>2026-04-25T07:19:42.056Z</time></trkpt><trkpt lat="43.79667046777423" lon="12.84521683797946"><ele>167.0</ele><time>2026-04-25T07:19:49.056Z</time></trkpt><trkpt lat="43.79673936387777" lon="12.8452191427432"><ele>167.0</ele><time>2026-04-25T07:19:57.056Z</time></trkpt><trkpt lat="43.796803336126565" lon="12.845219122080557"><ele>170.28571428571428</ele><time>2026-04-25T07:20:03.056Z</time></trkpt><trkpt lat="43.796868770675715" lon="12.84519150759065"><ele>173.57142857142858</ele><time>2026-04-25T07:20:10.056Z</time></trkpt><trkpt lat="43.79693347555597" lon="12.845182270087065"><ele>176.85714285714286</ele><time>2026-04-25T07:20:17.055Z</time></trkpt><trkpt lat="43.79699728210391" lon="12.845164630284732"><ele>180.14285714285714</ele><time>2026-04-25T07:20:25.055Z</time></trkpt><trkpt lat="43.797068022253875" lon="12.84516172780695"><ele>183.42857142857144</ele><time>2026-04-25T07:20:33.055Z</time></trkpt><trkpt lat="43.797139909320435" lon="12.845196319599566"><ele>186.71428571428572</ele><time>2026-04-25T07:20:39.055Z</time></trkpt><trkpt lat="43.79719051727709" lon="12.845250099736662"><ele>190.0</ele><time>2026-04-25T07:20:45.055Z</time></trkpt><trkpt lat="43.79722060146437" lon="12.845329139922347"><ele>190.0</ele><time>2026-04-25T07:20:51.055Z</time></trkpt><trkpt lat="43.797243061478966" lon="12.84541342155448"><ele>190.0</ele><time>2026-04-25T07:20:59.055Z</time></trkpt><trkpt lat="43.79722109678208" lon="12.845502062814482"><ele>190.0</ele><time>2026-04-25T07:21:07.055Z</time></trkpt><trkpt lat="43.79719809779916" lon="12.84558747644532"><ele>190.0</ele><time>2026-04-25T07:21:13.055Z</time></trkpt><trkpt lat="43.79718728336568" lon="12.845678855561735"><ele>190.0</ele><time>2026-04-25T07:21:20.055Z</time></trkpt><trkpt lat="43.79717432951209" lon="12.845764345198676"><ele>190.0</ele><time>2026-04-25T07:21:26.055Z</time></trkpt><trkpt lat="43.797157497155474" lon="12.845852085468119"><ele>190.0</ele><time>2026-04-25T07:21:34.056Z</time></trkpt><trkpt lat="43.7971403637128" lon="12.84594047627189"><ele>191.85714285714286</ele><time>2026-04-25T07:21:42.056Z</time></trkpt><trkpt lat="43.797123884866494" lon="12.846031379259305"><ele>193.71428571428572</ele><time>2026-04-25T07:21:49.057Z</time></trkpt><trkpt lat="43.797104680916895" lon="12.84612749885179"><ele>195.57142857142856</ele><time>2026-04-25T07:21:55.057Z</time></trkpt><trkpt lat="43.79710664491619" lon="12.84622301684812"><ele>197.42857142857144</ele><time>2026-04-25T07:22:00.057Z</time></trkpt><trkpt lat="43.79710115087865" lon="12.846322004094512"><ele>199.28571428571428</ele><time>2026-04-25T07:22:06.057Z</time></trkpt><trkpt lat="43.797095474994755" lon="12.846424404052724"><ele>201.14285714285714</ele><time>2026-04-25T07:22:12.057Z</time></trkpt><trkpt lat="43.797082890312254" lon="12.846516848564058"><ele>203.0</ele><time>2026-04-25T07:22:20.056Z</time></trkpt><trkpt lat="43.79707002487849" lon="12.846602350445332"><ele>203.0</ele><time>2026-04-25T07:22:27.056Z</time></trkpt><trkpt lat="43.79706457480648" lon="12.846699579535859"><ele>203.0</ele><time>2026-04-25T07:22:35.056Z</time></trkpt><trkpt lat="43.79702929540889" lon="12.846774611814903"><ele>203.0</ele><time>2026-04-25T07:22:41.056Z</time></trkpt><trkpt lat="43.797007482264895" lon="12.846871703515172"><ele>203.0</ele><time>2026-04-25T07:22:47.056Z</time></trkpt><trkpt lat="43.79697723275057" lon="12.846961854983522"><ele>203.0</ele><time>2026-04-25T07:22:56.056Z</time></trkpt><trkpt lat="43.79697366047837" lon="12.847065394878078"><ele>203.0</ele><time>2026-04-25T07:23:03.056Z</time></trkpt><trkpt lat="43.79698149711842" lon="12.847156406977179"><ele>203.0</ele><time>2026-04-25T07:23:09.056Z</time></trkpt><trkpt lat="43.79698824603222" lon="12.84724537578532"><ele>203.42857142857142</ele><time>2026-04-25T07:23:15.056Z</time></trkpt><trkpt lat="43.79699152366186" lon="12.847348737412597"><ele>203.85714285714286</ele><time>2026-04-25T07:23:22.056Z</time></trkpt><trkpt lat="43.79700397689249" lon="12.847452162998668"><ele>204.28571428571428</ele><time>2026-04-25T07:23:28.056Z</time></trkpt><trkpt lat="43.79699677510132" lon="12.847539353518524"><ele>204.71428571428572</ele><time>2026-04-25T07:23:35.056Z</time></trkpt><trkpt lat="43.79698818670169" lon="12.847628190807058"><ele>205.14285714285714</ele><time>2026-04-25T07:23:41.058Z</time></trkpt><trkpt lat="43.79697754905117" lon="12.847724051043677"><ele>205.57142857142856</ele><time>2026-04-25T07:23:49.057Z</time></trkpt><trkpt lat="43.79696736760833" lon="12.84781400666573"><ele>206.0</ele><time>2026-04-25T07:23:56.057Z</time></trkpt><trkpt lat="43.79695565027805" lon="12.84790339692308"><ele>206.85714285714283</ele><time>2026-04-25T07:24:04.057Z</time></trkpt><trkpt lat="43.79698334553848" lon="12.847983145900546"><ele>207.71428571428572</ele><time>2026-04-25T07:24:10.057Z</time></trkpt><trkpt lat="43.797010671028914" lon="12.848070603296"><ele>208.57142857142856</ele><time>2026-04-25T07:24:17.057Z</time></trkpt><trkpt lat="43.79703930075836" lon="12.848149930081343"><ele>209.42857142857142</ele><time>2026-04-25T07:24:23.001Z</time></trkpt><trkpt lat="43.797095582709986" lon="12.848220039579648"><ele>210.28571428571428</ele><time>2026-04-25T07:24:29Z</time></trkpt><trkpt lat="43.79713863179585" lon="12.848294551950167"><ele>211.14285714285714</ele><time>2026-04-25T07:24:34Z</time></trkpt><trkpt lat="43.79719278369843" lon="12.84836495486626"><ele>212.0</ele><time>2026-04-25T07:24:40Z</time></trkpt><trkpt lat="43.797237976645846" lon="12.848438458275599"><ele>214.0</ele><time>2026-04-25T07:24:47Z</time></trkpt><trkpt lat="43.797290219270494" lon="12.848505665654576"><ele>216.0</ele><time>2026-04-25T07:24:54Z</time></trkpt><trkpt lat="43.797327608293386" lon="12.848582457775542"><ele>218.0</ele><time>2026-04-25T07:25:00Z</time></trkpt><trkpt lat="43.79736649304931" lon="12.8486523524106"><ele>220.0</ele><time>2026-04-25T07:25:06Z</time></trkpt><trkpt lat="43.79742123346846" lon="12.848712188282134"><ele>222.0</ele><time>2026-04-25T07:25:13Z</time></trkpt><trkpt lat="43.797483601088814" lon="12.84875669824395"><ele>224.0</ele><time>2026-04-25T07:25:19.999Z</time></trkpt><trkpt lat="43.79754899550331" lon="12.848779671076128"><ele>226.0</ele><time>2026-04-25T07:25:26.999Z</time></trkpt><trkpt lat="43.79760763593747" lon="12.848814637584564"><ele>226.57142857142858</ele><time>2026-04-25T07:25:33.999Z</time></trkpt><trkpt lat="43.797670769942414" lon="12.848851621952791"><ele>227.1428571428571</ele><time>2026-04-25T07:25:40.999Z</time></trkpt><trkpt lat="43.797741811154495" lon="12.848869684076808"><ele>227.7142857142857</ele><time>2026-04-25T07:25:48.001Z</time></trkpt><trkpt lat="43.79780807072078" lon="12.848862865697878"><ele>228.28571428571428</ele><time>2026-04-25T07:25:54.002Z</time></trkpt><trkpt lat="43.79787479946791" lon="12.84884612727039"><ele>228.85714285714283</ele><time>2026-04-25T07:26:00.001Z</time></trkpt><trkpt lat="43.797943326292796" lon="12.848848930727542"><ele>229.4285714285714</ele><time>2026-04-25T07:26:06.001Z</time></trkpt><trkpt lat="43.798010619887314" lon="12.848834429204704"><ele>229.99999999999997</ele><time>2026-04-25T07:26:12.001Z</time></trkpt><trkpt lat="43.79807907841505" lon="12.848800356799455"><ele>229.99999999999997</ele><time>2026-04-25T07:26:18.001Z</time></trkpt><trkpt lat="43.79814979265626" lon="12.848772962792527"><ele>230.0</ele><time>2026-04-25T07:26:25.001Z</time></trkpt><trkpt lat="43.79820437586215" lon="12.84872457045105"><ele>229.99999999999997</ele><time>2026-04-25T07:26:32.001Z</time></trkpt><trkpt lat="43.79825444141104" lon="12.848669782096517"><ele>229.99999999999997</ele><time>2026-04-25T07:26:38.001Z</time></trkpt><trkpt lat="43.798281764474105" lon="12.848588316364662"><ele>230.0</ele><time>2026-04-25T07:26:45.001Z</time></trkpt><trkpt lat="43.79830271136385" lon="12.848499046618286"><ele>229.99999999999997</ele><time>2026-04-25T07:26:52Z</time></trkpt><trkpt lat="43.798322607548705" lon="12.84839828473354"><ele>229.99999999999997</ele><time>2026-04-25T07:26:59Z</time></trkpt><trkpt lat="43.7983443659304" lon="12.848313701026045"><ele>229.57142857142856</ele><time>2026-04-25T07:27:05Z</time></trkpt><trkpt lat="43.79836780481039" lon="12.848216748682042"><ele>229.14285714285714</ele><time>2026-04-25T07:27:11Z</time></trkpt><trkpt lat="43.79838494886091" lon="12.848127311620875"><ele>228.71428571428572</ele><time>2026-04-25T07:27:16Z</time></trkpt><trkpt lat="43.798407699255215" lon="12.84803134006617"><ele>228.28571428571428</ele><time>2026-04-25T07:27:26Z</time></trkpt><trkpt lat="43.79840566344111" lon="12.847943214318338"><ele>227.8571428571429</ele><time>2026-04-25T07:27:33Z</time></trkpt><trkpt lat="43.79840363109527" lon="12.847855868253598"><ele>227.42857142857144</ele><time>2026-04-25T07:27:37.999Z</time></trkpt><trkpt lat="43.79840028325488" lon="12.847758664685506"><ele>227.0</ele><time>2026-04-25T07:27:43.999Z</time></trkpt><trkpt lat="43.798388885432786" lon="12.847662771758555"><ele>227.57142857142858</ele><time>2026-04-25T07:27:49.999Z</time></trkpt><trkpt lat="43.79838688429763" lon="12.84756993196623"><ele>228.14285714285717</ele><time>2026-04-25T07:27:56.001Z</time></trkpt><trkpt lat="43.7983867114748" lon="12.847480404819295"><ele>228.71428571428572</ele><time>2026-04-25T07:28:02.001Z</time></trkpt><trkpt lat="43.79837841719931" lon="12.84738608973662"><ele>229.28571428571428</ele><time>2026-04-25T07:28:07.001Z</time></trkpt><trkpt lat="43.798383201463096" lon="12.847285197298113"><ele>229.85714285714286</ele><time>2026-04-25T07:28:14.001Z</time></trkpt><trkpt lat="43.798406476072486" lon="12.847201456053584"><ele>230.42857142857144</ele><time>2026-04-25T07:28:20.001Z</time></trkpt><trkpt lat="43.79847876903622" lon="12.847204283251147"><ele>231.0</ele><time>2026-04-25T07:28:27.001Z</time></trkpt><trkpt lat="43.79852485666375" lon="12.847264267259995"><ele>231.42857142857144</ele><time>2026-04-25T07:28:35Z</time></trkpt><trkpt lat="43.798586403234886" lon="12.84731243309877"><ele>231.85714285714286</ele><time>2026-04-25T07:28:40Z</time></trkpt><trkpt lat="43.79863644691758" lon="12.84737412134603"><ele>232.28571428571428</ele><time>2026-04-25T07:28:47Z</time></trkpt><trkpt lat="43.79868728831465" lon="12.847444723683495"><ele>232.71428571428572</ele><time>2026-04-25T07:28:54Z</time></trkpt><trkpt lat="43.798741975304765" lon="12.847509310898099"><ele>233.14285714285717</ele><time>2026-04-25T07:29:01Z</time></trkpt><trkpt lat="43.79878828425024" lon="12.847573687548975"><ele>233.57142857142858</ele><time>2026-04-25T07:29:06Z</time></trkpt><trkpt lat="43.79884070949422" lon="12.847643123826638"><ele>234.0</ele><time>2026-04-25T07:29:13Z</time></trkpt><trkpt lat="43.79888138399614" lon="12.847714143019651"><ele>235.85714285714286</ele><time>2026-04-25T07:29:19Z</time></trkpt><trkpt lat="43.7989317181004" lon="12.847787600590946"><ele>237.71428571428572</ele><time>2026-04-25T07:29:24.999Z</time></trkpt><trkpt lat="43.798963183532074" lon="12.847868556989862"><ele>239.57142857142858</ele><time>2026-04-25T07:29:30.999Z</time></trkpt><trkpt lat="43.79898442600567" lon="12.847966032992188"><ele>241.42857142857144</ele><time>2026-04-25T07:29:36.999Z</time></trkpt><trkpt lat="43.799021955470174" lon="12.848042473732004"><ele>243.28571428571428</ele><time>2026-04-25T07:29:45.999Z</time></trkpt><trkpt lat="43.79905978350756" lon="12.848131408684424"><ele>245.14285714285717</ele><time>2026-04-25T07:29:52.999Z</time></trkpt><trkpt lat="43.79908984399177" lon="12.848222322705725"><ele>247.0</ele><time>2026-04-25T07:29:59Z</time></trkpt><trkpt lat="43.79912385084633" lon="12.848297419520653"><ele>247.0</ele><time>2026-04-25T07:30:05.001Z</time></trkpt><trkpt lat="43.79915734693532" lon="12.848377556352245"><ele>247.0</ele><time>2026-04-25T07:30:10.001Z</time></trkpt><trkpt lat="43.79919082190438" lon="12.848453744841763"><ele>247.0</ele><time>2026-04-25T07:30:15.001Z</time></trkpt><trkpt lat="43.79922114971285" lon="12.84853964889645"><ele>247.0</ele><time>2026-04-25T07:30:20.001Z</time></trkpt><trkpt lat="43.799257741020014" lon="12.848620431375078"><ele>247.0</ele><time>2026-04-25T07:30:25.001Z</time></trkpt><trkpt lat="43.79929137262261" lon="12.848698595918712"><ele>247.0</ele><time>2026-04-25T07:30:30.001Z</time></trkpt><trkpt lat="43.79932855110708" lon="12.848770103539648"><ele>247.0</ele><time>2026-04-25T07:30:35.001Z</time></trkpt><trkpt lat="43.79937070018835" lon="12.848848610337377"><ele>247.57142857142858</ele><time>2026-04-25T07:30:41.001Z</time></trkpt><trkpt lat="43.799413556411544" lon="12.84892364923841"><ele>248.1428571428571</ele><time>2026-04-25T07:30:47.001Z</time></trkpt><trkpt lat="43.7994636638073" lon="12.848997477630205"><ele>248.7142857142857</ele><time>2026-04-25T07:30:54.001Z</time></trkpt><trkpt lat="43.7995161765083" lon="12.849054169178789"><ele>249.28571428571428</ele><time>2026-04-25T07:31:00.001Z</time></trkpt><trkpt lat="43.79956083558783" lon="12.84912115413006"><ele>249.85714285714283</ele><time>2026-04-25T07:31:06Z</time></trkpt><trkpt lat="43.79962388333855" lon="12.849162132391449"><ele>250.4285714285714</ele><time>2026-04-25T07:31:14Z</time></trkpt><trkpt lat="43.799678802766024" lon="12.849235058017781"><ele>250.99999999999997</ele><time>2026-04-25T07:31:21Z</time></trkpt><trkpt lat="43.79971710692783" lon="12.849314640571878"><ele>253.85714285714283</ele><time>2026-04-25T07:31:27Z</time></trkpt><trkpt lat="43.79975267156359" lon="12.849398690626773"><ele>256.7142857142857</ele><time>2026-04-25T07:31:35Z</time></trkpt><trkpt lat="43.79979470489318" lon="12.849473341158937"><ele>259.57142857142856</ele><time>2026-04-25T07:31:41Z</time></trkpt><trkpt lat="43.79984748092732" lon="12.849538447212057"><ele>262.42857142857144</ele><time>2026-04-25T07:32:12Z</time></trkpt><trkpt lat="43.7998940149599" lon="12.849605072168075"><ele>265.2857142857143</ele><time>2026-04-25T07:32:22Z</time></trkpt><trkpt lat="43.799949832602344" lon="12.849654381160331"><ele>268.1428571428571</ele><time>2026-04-25T07:32:28Z</time></trkpt><trkpt lat="43.79999487927089" lon="12.84972315704825"><ele>271.0</ele><time>2026-04-25T07:32:34Z</time></trkpt><trkpt lat="43.80005314197745" lon="12.8497883949203"><ele>271.0</ele><time>2026-04-25T07:32:40Z</time></trkpt><trkpt lat="43.80010908012323" lon="12.849834156188109"><ele>271.0</ele><time>2026-04-25T07:32:46Z</time></trkpt><trkpt lat="43.800177664338925" lon="12.849874301261497"><ele>271.0</ele><time>2026-04-25T07:32:51.999Z</time></trkpt><trkpt lat="43.80024143337445" lon="12.849902903630687"><ele>271.0</ele><time>2026-04-25T07:32:56.999Z</time></trkpt><trkpt lat="43.80034383354178" lon="12.84992021019263"><ele>271.0</ele><time>2026-04-25T07:33:04.999Z</time></trkpt><trkpt lat="43.800413138160785" lon="12.849935533292205"><ele>271.0</ele><time>2026-04-25T07:33:11.999Z</time></trkpt><trkpt lat="43.80048902897004" lon="12.84992633355896"><ele>270.42857142857144</ele><time>2026-04-25T07:33:16.999Z</time></trkpt><trkpt lat="43.800555113009594" lon="12.849910102693702"><ele>269.8571428571429</ele><time>2026-04-25T07:33:21.999Z</time></trkpt><trkpt lat="43.80061714440156" lon="12.84988087333071"><ele>269.28571428571433</ele><time>2026-04-25T07:33:26.999Z</time></trkpt><trkpt lat="43.80068722479791" lon="12.849868073213102"><ele>268.7142857142857</ele><time>2026-04-25T07:33:31.999Z</time></trkpt><trkpt lat="43.80075798002875" lon="12.849826018658323"><ele>268.14285714285717</ele><time>2026-04-25T07:33:36.999Z</time></trkpt><trkpt lat="43.8008185654537" lon="12.849768782071605"><ele>267.5714285714286</ele><time>2026-04-25T07:33:41.999Z</time></trkpt><trkpt lat="43.80088599773372" lon="12.849736473767305"><ele>267.0</ele><time>2026-04-25T07:33:46.998Z</time></trkpt><trkpt lat="43.80095110649922" lon="12.84969252041178"><ele>268.14285714285717</ele><time>2026-04-25T07:33:51.998Z</time></trkpt><trkpt lat="43.80101132231049" lon="12.849636034232926"><ele>269.2857142857143</ele><time>2026-04-25T07:33:56.998Z</time></trkpt><trkpt lat="43.80106969476064" lon="12.849582678769211"><ele>270.42857142857144</ele><time>2026-04-25T07:34:01.998Z</time></trkpt><trkpt lat="43.801121952308016" lon="12.849528576922983"><ele>271.57142857142856</ele><time>2026-04-25T07:34:05.998Z</time></trkpt><trkpt lat="43.801176898879405" lon="12.849458291097942"><ele>272.7142857142857</ele><time>2026-04-25T07:34:11Z</time></trkpt><trkpt lat="43.801232720030946" lon="12.849401737124607"><ele>273.8571428571429</ele><time>2026-04-25T07:34:15.999Z</time></trkpt><trkpt lat="43.80127642437134" lon="12.849322090320092"><ele>275.0</ele><time>2026-04-25T07:34:20.999Z</time></trkpt><trkpt lat="43.80133598157354" lon="12.849260596623726"><ele>272.7142857142857</ele><time>2026-04-25T07:34:26.999Z</time></trkpt><trkpt lat="43.80138880023941" lon="12.849210482644503"><ele>270.42857142857144</ele><time>2026-04-25T07:34:30.999Z</time></trkpt><trkpt lat="43.80143854483557" lon="12.849133613070295"><ele>268.1428571428571</ele><time>2026-04-25T07:34:35.999Z</time></trkpt><trkpt lat="43.80148382299817" lon="12.849065442147506"><ele>265.8571428571429</ele><time>2026-04-25T07:34:40.999Z</time></trkpt><trkpt lat="43.8015396665298" lon="12.848999046555264"><ele>263.57142857142856</ele><time>2026-04-25T07:34:45.999Z</time></trkpt><trkpt lat="43.80159405019598" lon="12.84895025115528"><ele>261.2857142857143</ele><time>2026-04-25T07:34:50.999Z</time></trkpt><trkpt lat="43.80163895876709" lon="12.848884952393021"><ele>259.0</ele><time>2026-04-25T07:34:56.999Z</time></trkpt><trkpt lat="43.80170069226673" lon="12.848822404644721"><ele>259.0</ele><time>2026-04-25T07:35:01.999Z</time></trkpt><trkpt lat="43.80174843304138" lon="12.848762982274188"><ele>259.0</ele><time>2026-04-25T07:35:05.999Z</time></trkpt><trkpt lat="43.801802045247875" lon="12.848702542286045"><ele>259.0</ele><time>2026-04-25T07:35:10.998Z</time></trkpt><trkpt lat="43.801853065064186" lon="12.848648296511678"><ele>259.0</ele><time>2026-04-25T07:35:15.998Z</time></trkpt><trkpt lat="43.80190835403271" lon="12.848574390652296"><ele>259.0</ele><time>2026-04-25T07:35:20.998Z</time></trkpt><trkpt lat="43.80195713062662" lon="12.848502158230488"><ele>259.0</ele><time>2026-04-25T07:35:25.998Z</time></trkpt><trkpt lat="43.80199602274282" lon="12.848427361727397"><ele>259.0</ele><time>2026-04-25T07:35:30.998Z</time></trkpt><trkpt lat="43.80204858109077" lon="12.848353556681817"><ele>259.0</ele><time>2026-04-25T07:35:35.998Z</time></trkpt><trkpt lat="43.802075165277905" lon="12.848274033671691"><ele>259.0</ele><time>2026-04-25T07:35:39.998Z</time></trkpt><trkpt lat="43.802106330990256" lon="12.848180040845604"><ele>259.0</ele><time>2026-04-25T07:35:44.998Z</time></trkpt><trkpt lat="43.802152616645735" lon="12.848097086934848"><ele>259.0</ele><time>2026-04-25T07:35:49.998Z</time></trkpt><trkpt lat="43.80218412130908" lon="12.848008813935294"><ele>259.0</ele><time>2026-04-25T07:35:54.998Z</time></trkpt><trkpt lat="43.80221972392985" lon="12.847923491960584"><ele>259.0</ele><time>2026-04-25T07:35:59.997Z</time></trkpt><trkpt lat="43.80225345741062" lon="12.847849782872832"><ele>259.0</ele><time>2026-04-25T07:36:03.997Z</time></trkpt><trkpt lat="43.802308504680255" lon="12.84778445484471"><ele>259.0</ele><time>2026-04-25T07:36:08.997Z</time></trkpt><trkpt lat="43.80236326956639" lon="12.847729115848232"><ele>259.0</ele><time>2026-04-25T07:36:13.999Z</time></trkpt><trkpt lat="43.80243509923497" lon="12.847689694135978"><ele>259.0</ele><time>2026-04-25T07:36:19.999Z</time></trkpt><trkpt lat="43.8025127689752" lon="12.847676243394247"><ele>259.0</ele><time>2026-04-25T07:36:24.999Z</time></trkpt><trkpt lat="43.802584308802224" lon="12.847674965692066"><ele>259.0</ele><time>2026-04-25T07:36:29.999Z</time></trkpt><trkpt lat="43.80265208390452" lon="12.8476660390233"><ele>259.0</ele><time>2026-04-25T07:36:34.999Z</time></trkpt><trkpt lat="43.80272056677453" lon="12.847677531483434"><ele>259.0</ele><time>2026-04-25T07:36:39.999Z</time></trkpt><trkpt lat="43.8027893668538" lon="12.84766679699714"><ele>259.14285714285717</ele><time>2026-04-25T07:36:44.999Z</time></trkpt><trkpt lat="43.8028569277701" lon="12.84763684897976"><ele>259.2857142857143</ele><time>2026-04-25T07:36:49.999Z</time></trkpt><trkpt lat="43.80292630095698" lon="12.84761862649744"><ele>259.42857142857144</ele><time>2026-04-25T07:36:54.999Z</time></trkpt><trkpt lat="43.80299121769011" lon="12.847601515998372"><ele>259.57142857142856</ele><time>2026-04-25T07:36:59.998Z</time></trkpt><trkpt lat="43.8030599089041" lon="12.847583038093926"><ele>259.7142857142857</ele><time>2026-04-25T07:37:04.998Z</time></trkpt><trkpt lat="43.80313318367625" lon="12.847554983384173"><ele>259.8571428571429</ele><time>2026-04-25T07:37:09.998Z</time></trkpt><trkpt lat="43.803195206687754" lon="12.847510432748555"><ele>260.0</ele><time>2026-04-25T07:37:13.998Z</time></trkpt><trkpt lat="43.80325838483604" lon="12.847467476714685"><ele>256.7142857142857</ele><time>2026-04-25T07:37:18.998Z</time></trkpt><trkpt lat="43.803325062396326" lon="12.847425728885526"><ele>253.42857142857144</ele><time>2026-04-25T07:37:23.998Z</time></trkpt><trkpt lat="43.803390354142685" lon="12.847417117319916"><ele>250.14285714285714</ele><time>2026-04-25T07:37:28.998Z</time></trkpt><trkpt lat="43.803454373563405" lon="12.847379036432187"><ele>246.85714285714286</ele><time>2026-04-25T07:37:33.998Z</time></trkpt><trkpt lat="43.8035257763201" lon="12.847350948296274"><ele>243.57142857142856</ele><time>2026-04-25T07:37:38.998Z</time></trkpt><trkpt lat="43.803589181703394" lon="12.847329939162332"><ele>240.28571428571425</ele><time>2026-04-25T07:37:43.998Z</time></trkpt><trkpt lat="43.80367020656723" lon="12.847316536820012"><ele>236.99999999999997</ele><time>2026-04-25T07:37:49.997Z</time></trkpt><trkpt lat="43.80373594825296" lon="12.84730214989546"><ele>236.99999999999997</ele><time>2026-04-25T07:37:54.997Z</time></trkpt><trkpt lat="43.80381076122363" lon="12.84731004600128"><ele>237.0</ele><time>2026-04-25T07:38:00.997Z</time></trkpt><trkpt lat="43.80387925832012" lon="12.847309692350821"><ele>236.99999999999997</ele><time>2026-04-25T07:38:04.997Z</time></trkpt><trkpt lat="43.803944513505435" lon="12.84729834692663"><ele>236.99999999999997</ele><time>2026-04-25T07:38:08.997Z</time></trkpt><trkpt lat="43.80400828046668" lon="12.847274819110773"><ele>237.0</ele><time>2026-04-25T07:38:12.997Z</time></trkpt><trkpt lat="43.8040765872837" lon="12.847245225730228"><ele>236.99999999999997</ele><time>2026-04-25T07:38:16.997Z</time></trkpt><trkpt lat="43.8041304024418" lon="12.847190435879273"><ele>236.99999999999997</ele><time>2026-04-25T07:38:20.998Z</time></trkpt><trkpt lat="43.80419243832595" lon="12.847142317410649"><ele>236.99999999999997</ele><time>2026-04-25T07:38:25.999Z</time></trkpt><trkpt lat="43.80424296950004" lon="12.84707986764799"><ele>237.0</ele><time>2026-04-25T07:38:29.998Z</time></trkpt><trkpt lat="43.80429690622776" lon="12.847026312157206"><ele>236.99999999999997</ele><time>2026-04-25T07:38:34.999Z</time></trkpt><trkpt lat="43.80433189588654" lon="12.846952533002941"><ele>236.99999999999997</ele><time>2026-04-25T07:38:39.999Z</time></trkpt><trkpt lat="43.80437155997817" lon="12.846883910219828"><ele>237.0</ele><time>2026-04-25T07:38:43.999Z</time></trkpt><trkpt lat="43.80442527133754" lon="12.84682701528389"><ele>236.99999999999997</ele><time>2026-04-25T07:38:48.999Z</time></trkpt><trkpt lat="43.80446888365549" lon="12.846745960565945"><ele>236.99999999999997</ele><time>2026-04-25T07:38:53.998Z</time></trkpt><trkpt lat="43.80450747499336" lon="12.846657806806322"><ele>236.1428571428571</ele><time>2026-04-25T07:38:58.998Z</time></trkpt><trkpt lat="43.804544096017054" lon="12.846567434412025"><ele>235.28571428571428</ele><time>2026-04-25T07:39:03.998Z</time></trkpt><trkpt lat="43.80459305014176" lon="12.846500218432087"><ele>234.42857142857142</ele><time>2026-04-25T07:39:08.998Z</time></trkpt><trkpt lat="43.804630301424496" lon="12.846416165000628"><ele>233.57142857142856</ele><time>2026-04-25T07:39:13.998Z</time></trkpt><trkpt lat="43.80467118770747" lon="12.846336953568677"><ele>232.71428571428572</ele><time>2026-04-25T07:39:18.998Z</time></trkpt><trkpt lat="43.80470248275289" lon="12.846250789573665"><ele>231.85714285714286</ele><time>2026-04-25T07:39:23.998Z</time></trkpt><trkpt lat="43.80473495480054" lon="12.846157568636963"><ele>231.0</ele><time>2026-04-25T07:39:28.998Z</time></trkpt><trkpt lat="43.80475382262428" lon="12.846073541089511"><ele>231.0</ele><time>2026-04-25T07:39:32.998Z</time></trkpt><trkpt lat="43.804766794191806" lon="12.845978216061791"><ele>231.0</ele><time>2026-04-25T07:39:37.998Z</time></trkpt><trkpt lat="43.80476588288478" lon="12.845878134621497"><ele>231.0</ele><time>2026-04-25T07:39:42.997Z</time></trkpt><trkpt lat="43.80477668761651" lon="12.845783564263249"><ele>231.0</ele><time>2026-04-25T07:39:48.997Z</time></trkpt><trkpt lat="43.80478001926675" lon="12.845695538198422"><ele>231.0</ele><time>2026-04-25T07:39:52.997Z</time></trkpt><trkpt lat="43.80478537367265" lon="12.84560263358926"><ele>231.0</ele><time>2026-04-25T07:39:57.997Z</time></trkpt><trkpt lat="43.80480103192382" lon="12.845508336170894"><ele>231.0</ele><time>2026-04-25T07:40:02.997Z</time></trkpt><trkpt lat="43.80481168411391" lon="12.845406717333468"><ele>229.85714285714286</ele><time>2026-04-25T07:40:07.997Z</time></trkpt><trkpt lat="43.8048129411326" lon="12.845305739485886"><ele>228.71428571428572</ele><time>2026-04-25T07:40:13.997Z</time></trkpt><trkpt lat="43.80482590232233" lon="12.845211718251049"><ele>227.57142857142856</ele><time>2026-04-25T07:40:18.997Z</time></trkpt><trkpt lat="43.80483862853061" lon="12.845121194277104"><ele>226.42857142857144</ele><time>2026-04-25T07:40:23.925Z</time></trkpt><trkpt lat="43.80485221086613" lon="12.845033714342321"><ele>225.28571428571428</ele><time>2026-04-25T07:40:27.926Z</time></trkpt><trkpt lat="43.80486505876147" lon="12.844936342594933"><ele>224.14285714285714</ele><time>2026-04-25T07:40:33.927Z</time></trkpt><trkpt lat="43.80488489109653" lon="12.844843671712605"><ele>223.0</ele><time>2026-04-25T07:40:38.926Z</time></trkpt><trkpt lat="43.80491895859426" lon="12.84475565605012"><ele>222.0</ele><time>2026-04-25T07:40:43.926Z</time></trkpt><trkpt lat="43.80495838247038" lon="12.844669453806024"><ele>221.0</ele><time>2026-04-25T07:40:48.926Z</time></trkpt><trkpt lat="43.80501645495722" lon="12.84460774986018"><ele>220.0</ele><time>2026-04-25T07:40:53.926Z</time></trkpt><trkpt lat="43.80507992654069" lon="12.844572048481941"><ele>219.0</ele><time>2026-04-25T07:40:58.926Z</time></trkpt><trkpt lat="43.80514397029468" lon="12.844582333190072"><ele>218.0</ele><time>2026-04-25T07:41:03.925Z</time></trkpt><trkpt lat="43.805215387667566" lon="12.84459190786191"><ele>217.0</ele><time>2026-04-25T07:41:09.925Z</time></trkpt><trkpt lat="43.80527910338871" lon="12.844606931130572"><ele>216.0</ele><time>2026-04-25T07:41:14.925Z</time></trkpt><trkpt lat="43.80534378368472" lon="12.844614752237863"><ele>215.57142857142856</ele><time>2026-04-25T07:41:19.925Z</time></trkpt><trkpt lat="43.805415637115196" lon="12.844628254718996"><ele>215.14285714285714</ele><time>2026-04-25T07:41:25.925Z</time></trkpt><trkpt lat="43.805476774123264" lon="12.84465200246535"><ele>214.71428571428572</ele><time>2026-04-25T07:41:31.925Z</time></trkpt><trkpt lat="43.80554787799572" lon="12.844668884926653"><ele>214.28571428571428</ele><time>2026-04-25T07:41:36.924Z</time></trkpt><trkpt lat="43.805612218071325" lon="12.844675602778059"><ele>213.85714285714286</ele><time>2026-04-25T07:41:41.924Z</time></trkpt><trkpt lat="43.805685427516224" lon="12.844689967257134"><ele>213.42857142857142</ele><time>2026-04-25T07:41:47.924Z</time></trkpt><trkpt lat="43.80575372050976" lon="12.844708559742967"><ele>213.0</ele><time>2026-04-25T07:41:52.924Z</time></trkpt><trkpt lat="43.80582841792587" lon="12.844740501722557"><ele>212.99999999999997</ele><time>2026-04-25T07:41:58.924Z</time></trkpt><trkpt lat="43.80589346384644" lon="12.844741883476503"><ele>213.0</ele><time>2026-04-25T07:42:02.924Z</time></trkpt><trkpt lat="43.8059574507212" lon="12.8447616432304"><ele>213.0</ele><time>2026-04-25T07:42:06.923Z</time></trkpt><trkpt lat="43.806016338637406" lon="12.844795382392585"><ele>213.0</ele><time>2026-04-25T07:42:10.923Z</time></trkpt><trkpt lat="43.80608306217937" lon="12.844843370080337"><ele>213.0</ele><time>2026-04-25T07:42:14.923Z</time></trkpt><trkpt lat="43.80614001375539" lon="12.84488719812671"><ele>212.99999999999997</ele><time>2026-04-25T07:42:18.923Z</time></trkpt><trkpt lat="43.806200439804414" lon="12.844932711739116"><ele>213.0</ele><time>2026-04-25T07:42:22.923Z</time></trkpt><trkpt lat="43.80625292012103" lon="12.84498537280566"><ele>210.57142857142856</ele><time>2026-04-25T07:42:26.923Z</time></trkpt><trkpt lat="43.80629897956547" lon="12.845051333950636"><ele>208.14285714285714</ele><time>2026-04-25T07:42:30.923Z</time></trkpt><trkpt lat="43.806348905609056" lon="12.84511375167646"><ele>205.71428571428572</ele><time>2026-04-25T07:42:34.925Z</time></trkpt><trkpt lat="43.80641268245613" lon="12.845179997851966"><ele>203.28571428571428</ele><time>2026-04-25T07:42:42.925Z</time></trkpt><trkpt lat="43.806444665355556" lon="12.845259810164542"><ele>200.85714285714286</ele><time>2026-04-25T07:42:46.925Z</time></trkpt><trkpt lat="43.80649788559531" lon="12.845317601321502"><ele>198.42857142857142</ele><time>2026-04-25T07:42:51.925Z</time></trkpt><trkpt lat="43.80655775850335" lon="12.845379663308238"><ele>196.0</ele><time>2026-04-25T07:42:56.925Z</time></trkpt><trkpt lat="43.80660632210773" lon="12.845436540180682"><ele>196.0</ele><time>2026-04-25T07:43:00.924Z</time></trkpt><trkpt lat="43.80666351973769" lon="12.845498644308131"><ele>196.0</ele><time>2026-04-25T07:43:05.924Z</time></trkpt><trkpt lat="43.806704336948805" lon="12.845567963408646"><ele>196.0</ele><time>2026-04-25T07:43:09.924Z</time></trkpt><trkpt lat="43.80674645555068" lon="12.845641086410081"><ele>196.0</ele><time>2026-04-25T07:43:14.924Z</time></trkpt><trkpt lat="43.80679975931287" lon="12.845698943990959"><ele>196.0</ele><time>2026-04-25T07:43:20.924Z</time></trkpt><trkpt lat="43.806855261324095" lon="12.845752394021622"><ele>196.0</ele><time>2026-04-25T07:43:24.924Z</time></trkpt><trkpt lat="43.80691895552828" lon="12.845813806475133"><ele>196.0</ele><time>2026-04-25T07:43:30.923Z</time></trkpt><trkpt lat="43.806974256286686" lon="12.845868588321364"><ele>195.71428571428572</ele><time>2026-04-25T07:43:35.923Z</time></trkpt><trkpt lat="43.80704250592568" lon="12.845901874928174"><ele>195.42857142857144</ele><time>2026-04-25T07:43:40.923Z</time></trkpt><trkpt lat="43.807108216443154" lon="12.845936483549673"><ele>195.14285714285714</ele><time>2026-04-25T07:43:46.923Z</time></trkpt><trkpt lat="43.807170034247726" lon="12.845976855531335"><ele>194.85714285714286</ele><time>2026-04-25T07:43:51.923Z</time></trkpt><trkpt lat="43.80723223723318" lon="12.846023380609395"><ele>194.57142857142858</ele><time>2026-04-25T07:43:57.923Z</time></trkpt><trkpt lat="43.80729495114889" lon="12.84606474852648"><ele>194.28571428571428</ele><time>2026-04-25T07:44:02.922Z</time></trkpt><trkpt lat="43.807363909050146" lon="12.846107651274647"><ele>194.0</ele><time>2026-04-25T07:44:08.922Z</time></trkpt><trkpt lat="43.80743069058584" lon="12.846127839850372"><ele>194.0</ele><time>2026-04-25T07:44:13.922Z</time></trkpt><trkpt lat="43.807493891161776" lon="12.84609753237295"><ele>194.0</ele><time>2026-04-25T07:44:18.922Z</time></trkpt><trkpt lat="43.80754565483896" lon="12.846043509164096"><ele>194.0</ele><time>2026-04-25T07:44:23.922Z</time></trkpt><trkpt lat="43.807595627711805" lon="12.845984599533503"><ele>194.0</ele><time>2026-04-25T07:44:28.921Z</time></trkpt><trkpt lat="43.80765399194301" lon="12.845927300252336"><ele>194.0</ele><time>2026-04-25T07:44:33.921Z</time></trkpt><trkpt lat="43.80771176522704" lon="12.845878717838659"><ele>194.0</ele><time>2026-04-25T07:44:38.922Z</time></trkpt><trkpt lat="43.80774842998482" lon="12.845802558722951"><ele>194.0</ele><time>2026-04-25T07:44:43.923Z</time></trkpt><trkpt lat="43.8077846535062" lon="12.845729058564807"><ele>189.42857142857142</ele><time>2026-04-25T07:44:49.922Z</time></trkpt><trkpt lat="43.8078164328203" lon="12.845649626629653"><ele>184.85714285714286</ele><time>2026-04-25T07:44:54.922Z</time></trkpt><trkpt lat="43.807883432175785" lon="12.84566185082334"><ele>180.28571428571428</ele><time>2026-04-25T07:44:59.922Z</time></trkpt><trkpt lat="43.80792487201033" lon="12.845735473915642"><ele>175.71428571428572</ele><time>2026-04-25T07:45:03.922Z</time></trkpt><trkpt lat="43.80795041618004" lon="12.845835989765911"><ele>171.14285714285714</ele><time>2026-04-25T07:45:09.922Z</time></trkpt><trkpt lat="43.807952644261604" lon="12.845931513210871"><ele>166.57142857142858</ele><time>2026-04-25T07:45:14.922Z</time></trkpt><trkpt lat="43.80796308833028" lon="12.84602962994186"><ele>162.0</ele><time>2026-04-25T07:45:19.922Z</time></trkpt><trkpt lat="43.80797196328425" lon="12.846125699373866"><ele>162.0</ele><time>2026-04-25T07:45:23.921Z</time></trkpt><trkpt lat="43.80798385185669" lon="12.846227244113386"><ele>162.0</ele><time>2026-04-25T07:45:28.921Z</time></trkpt><trkpt lat="43.807992580472046" lon="12.846316384991125"><ele>162.0</ele><time>2026-04-25T07:45:33.921Z</time></trkpt><trkpt lat="43.80801264927629" lon="12.846405537725724"><ele>162.0</ele><time>2026-04-25T07:45:38.921Z</time></trkpt><trkpt lat="43.8080203413054" lon="12.846493388666284"><ele>162.0</ele><time>2026-04-25T07:45:43.921Z</time></trkpt><trkpt lat="43.80803175949359" lon="12.846597072453111"><ele>162.0</ele><time>2026-04-25T07:45:48.921Z</time></trkpt><trkpt lat="43.808048943553885" lon="12.846694416426672"><ele>162.0</ele><time>2026-04-25T07:45:53.92Z</time></trkpt><trkpt lat="43.808068792018354" lon="12.846782005248894"><ele>163.0</ele><time>2026-04-25T07:45:57.92Z</time></trkpt><trkpt lat="43.80809650275521" lon="12.846865693823956"><ele>164.0</ele><time>2026-04-25T07:46:01.92Z</time></trkpt><trkpt lat="43.80811408733178" lon="12.846959291386595"><ele>165.0</ele><time>2026-04-25T07:46:05.92Z</time></trkpt><trkpt lat="43.80813105928839" lon="12.84704805856064"><ele>166.0</ele><time>2026-04-25T07:46:10.92Z</time></trkpt><trkpt lat="43.808167019315775" lon="12.847130957469608"><ele>167.0</ele><time>2026-04-25T07:46:14.92Z</time></trkpt><trkpt lat="43.80819419093665" lon="12.847218694960542"><ele>168.0</ele><time>2026-04-25T07:46:19.92Z</time></trkpt><trkpt lat="43.80823186316708" lon="12.847305848549485"><ele>169.0</ele><time>2026-04-25T07:46:24.919Z</time></trkpt><trkpt lat="43.80827142264595" lon="12.847376156262259"><ele>169.0</ele><time>2026-04-25T07:46:28.919Z</time></trkpt><trkpt lat="43.80830944712514" lon="12.847465846678134"><ele>169.0</ele><time>2026-04-25T07:46:33.919Z</time></trkpt><trkpt lat="43.80834526288509" lon="12.847551649302916"><ele>169.0</ele><time>2026-04-25T07:46:38.919Z</time></trkpt><trkpt lat="43.808382714380684" lon="12.847643097046888"><ele>169.0</ele><time>2026-04-25T07:46:43.92Z</time></trkpt><trkpt lat="43.808411692636675" lon="12.847721423399314"><ele>169.0</ele><time>2026-04-25T07:46:48.92Z</time></trkpt><trkpt lat="43.808445857505404" lon="12.847801267765735"><ele>169.0</ele><time>2026-04-25T07:46:53.92Z</time></trkpt><trkpt lat="43.8084617647664" lon="12.847892740637818"><ele>169.0</ele><time>2026-04-25T07:46:58.92Z</time></trkpt><trkpt lat="43.80847779911721" lon="12.847978888160632"><ele>168.0</ele><time>2026-04-25T07:47:02.92Z</time></trkpt><trkpt lat="43.80850259414972" lon="12.84807847790218"><ele>167.0</ele><time>2026-04-25T07:47:07.92Z</time></trkpt><trkpt lat="43.80852517648207" lon="12.848187943972931"><ele>166.0</ele><time>2026-04-25T07:47:12.92Z</time></trkpt><trkpt lat="43.80855202766636" lon="12.848271451981015"><ele>165.0</ele><time>2026-04-25T07:47:17.919Z</time></trkpt><trkpt lat="43.808575677796576" lon="12.84836033577764"><ele>164.0</ele><time>2026-04-25T07:47:21.919Z</time></trkpt><trkpt lat="43.80859941949972" lon="12.848457616105366"><ele>163.0</ele><time>2026-04-25T07:47:26.919Z</time></trkpt><trkpt lat="43.808616449056224" lon="12.848560021046852"><ele>162.0</ele><time>2026-04-25T07:47:31.919Z</time></trkpt><trkpt lat="43.80864214450917" lon="12.848646789520926"><ele>162.0</ele><time>2026-04-25T07:47:36.919Z</time></trkpt><trkpt lat="43.8086487239167" lon="12.848753441889414"><ele>162.0</ele><time>2026-04-25T07:47:42.919Z</time></trkpt><trkpt lat="43.80867520619829" lon="12.848859372710177"><ele>162.0</ele><time>2026-04-25T07:47:47.918Z</time></trkpt><trkpt lat="43.80869236271236" lon="12.84895963105961"><ele>162.0</ele><time>2026-04-25T07:47:52.918Z</time></trkpt><trkpt lat="43.80871430424393" lon="12.849064595991212"><ele>162.0</ele><time>2026-04-25T07:47:57.918Z</time></trkpt><trkpt lat="43.80872247117688" lon="12.849153619109128"><ele>162.0</ele><time>2026-04-25T07:48:02.918Z</time></trkpt><trkpt lat="43.80875457792458" lon="12.84923674771132"><ele>162.0</ele><time>2026-04-25T07:48:06.918Z</time></trkpt><trkpt lat="43.80878248073177" lon="12.84932046621169"><ele>161.28571428571428</ele><time>2026-04-25T07:48:11.918Z</time></trkpt><trkpt lat="43.80882583067487" lon="12.849414067900106"><ele>160.57142857142856</ele><time>2026-04-25T07:48:16.917Z</time></trkpt><trkpt lat="43.80885914504455" lon="12.84949580987897"><ele>159.85714285714283</ele><time>2026-04-25T07:48:21.917Z</time></trkpt><trkpt lat="43.80889697632593" lon="12.849571766801759"><ele>159.14285714285714</ele><time>2026-04-25T07:48:25.917Z</time></trkpt><trkpt lat="43.80894875347741" lon="12.849640435842845"><ele>158.42857142857142</ele><time>2026-04-25T07:48:30.917Z</time></trkpt><trkpt lat="43.809001217200304" lon="12.849697366443452"><ele>157.7142857142857</ele><time>2026-04-25T07:48:35.917Z</time></trkpt><trkpt lat="43.809062723432945" lon="12.849747799482136"><ele>157.0</ele><time>2026-04-25T07:48:40.917Z</time></trkpt><trkpt lat="43.80912726555653" lon="12.849787222577874"><ele>156.99999999999997</ele><time>2026-04-25T07:48:45.916Z</time></trkpt><trkpt lat="43.809193623588996" lon="12.849802753318938"><ele>157.0</ele><time>2026-04-25T07:48:51.919Z</time></trkpt><trkpt lat="43.809261468533904" lon="12.849792494775135"><ele>157.0</ele><time>2026-04-25T07:48:56.919Z</time></trkpt><trkpt lat="43.809326694140346" lon="12.849805418690908"><ele>157.0</ele><time>2026-04-25T07:49:01.918Z</time></trkpt><trkpt lat="43.80939844147673" lon="12.849796685542458"><ele>157.0</ele><time>2026-04-25T07:49:06.918Z</time></trkpt><trkpt lat="43.809470503823064" lon="12.849790192200063"><ele>156.99999999999997</ele><time>2026-04-25T07:49:12.917Z</time></trkpt><trkpt lat="43.80954363548291" lon="12.849766101231522"><ele>157.0</ele><time>2026-04-25T07:49:18.917Z</time></trkpt><trkpt lat="43.80960671592059" lon="12.849720545599862"><ele>156.7142857142857</ele><time>2026-04-25T07:49:24.917Z</time></trkpt><trkpt lat="43.80967938808702" lon="12.849688702442975"><ele>156.42857142857142</ele><time>2026-04-25T07:49:29.917Z</time></trkpt><trkpt lat="43.80974028813594" lon="12.849656856431688"><ele>156.14285714285714</ele><time>2026-04-25T07:49:33.917Z</time></trkpt><trkpt lat="43.8098000328699" lon="12.849616445819045"><ele>155.85714285714283</ele><time>2026-04-25T07:49:38.917Z</time></trkpt><trkpt lat="43.80986453942661" lon="12.849581120374978"><ele>155.57142857142856</ele><time>2026-04-25T07:49:43.916Z</time></trkpt><trkpt lat="43.809933500880945" lon="12.849545444624153"><ele>155.28571428571428</ele><time>2026-04-25T07:49:48.916Z</time></trkpt><trkpt lat="43.81000469630573" lon="12.849503929959914"><ele>155.0</ele><time>2026-04-25T07:49:54.916Z</time></trkpt><trkpt lat="43.81005287455479" lon="12.849445772649787"><ele>155.0</ele><time>2026-04-25T07:49:59.916Z</time></trkpt><trkpt lat="43.81010683857741" lon="12.849393700221935"><ele>155.0</ele><time>2026-04-25T07:50:05.916Z</time></trkpt><trkpt lat="43.810167500592684" lon="12.849359322067516"><ele>155.0</ele><time>2026-04-25T07:50:10.915Z</time></trkpt><trkpt lat="43.810227414342144" lon="12.849297987826638"><ele>155.0</ele><time>2026-04-25T07:50:16.915Z</time></trkpt><trkpt lat="43.81028951539957" lon="12.84924809204471"><ele>155.0</ele><time>2026-04-25T07:50:21.915Z</time></trkpt><trkpt lat="43.81034949047589" lon="12.84917561090321"><ele>155.0</ele><time>2026-04-25T07:50:26.915Z</time></trkpt><trkpt lat="43.81040598809105" lon="12.84910427512604"><ele>155.0</ele><time>2026-04-25T07:50:32.915Z</time></trkpt><trkpt lat="43.8104734074198" lon="12.849051552947625"><ele>157.0</ele><time>2026-04-25T07:50:37.915Z</time></trkpt><trkpt lat="43.81052478886981" lon="12.848997680294897"><ele>159.0</ele><time>2026-04-25T07:50:42.914Z</time></trkpt><trkpt lat="43.8105780197575" lon="12.848948126057605"><ele>161.0</ele><time>2026-04-25T07:50:47.914Z</time></trkpt><trkpt lat="43.810643106361304" lon="12.84890892066845"><ele>163.0</ele><time>2026-04-25T07:50:52.914Z</time></trkpt><trkpt lat="43.810708225513686" lon="12.84886779824305"><ele>165.0</ele><time>2026-04-25T07:50:57.916Z</time></trkpt><trkpt lat="43.81077134436571" lon="12.848833715066178"><ele>167.0</ele><time>2026-04-25T07:51:02.916Z</time></trkpt><trkpt lat="43.81084073662258" lon="12.848798833945692"><ele>169.0</ele><time>2026-04-25T07:51:07.916Z</time></trkpt><trkpt lat="43.810907249698964" lon="12.848774412949608"><ele>169.0</ele><time>2026-04-25T07:51:12.915Z</time></trkpt><trkpt lat="43.810979118205324" lon="12.848762385548566"><ele>169.0</ele><time>2026-04-25T07:51:17.915Z</time></trkpt><trkpt lat="43.811050399767765" lon="12.848754389271958"><ele>169.0</ele><time>2026-04-25T07:51:22.915Z</time></trkpt><trkpt lat="43.811124300723044" lon="12.848739563653265"><ele>169.0</ele><time>2026-04-25T07:51:29.915Z</time></trkpt><trkpt lat="43.81119394515283" lon="12.84874403953794"><ele>169.0</ele><time>2026-04-25T07:51:35.915Z</time></trkpt><trkpt lat="43.811268416627776" lon="12.848735076662017"><ele>169.0</ele><time>2026-04-25T07:51:40.914Z</time></trkpt><trkpt lat="43.81133816810139" lon="12.848735351305827"><ele>169.0</ele><time>2026-04-25T07:51:46.914Z</time></trkpt><trkpt lat="43.81140940030365" lon="12.848739394194759"><ele>169.28571428571428</ele><time>2026-04-25T07:51:52.914Z</time></trkpt><trkpt lat="43.811478516759855" lon="12.84875371053732"><ele>169.57142857142856</ele><time>2026-04-25T07:51:58.914Z</time></trkpt><trkpt lat="43.811558152395726" lon="12.848762433406655"><ele>169.85714285714283</ele><time>2026-04-25T07:52:03.914Z</time></trkpt><trkpt lat="43.81163217788643" lon="12.848784748829313"><ele>170.14285714285714</ele><time>2026-04-25T07:52:09.913Z</time></trkpt><trkpt lat="43.81170521887703" lon="12.84880216389818"><ele>170.42857142857142</ele><time>2026-04-25T07:52:13.913Z</time></trkpt><trkpt lat="43.81176838906611" lon="12.848826194830888"><ele>170.7142857142857</ele><time>2026-04-25T07:52:17.913Z</time></trkpt><trkpt lat="43.81182825833703" lon="12.848855995057614"><ele>171.0</ele><time>2026-04-25T07:52:21.913Z</time></trkpt><trkpt lat="43.81189131442286" lon="12.848877389093404"><ele>171.85714285714283</ele><time>2026-04-25T07:52:26.913Z</time></trkpt><trkpt lat="43.81195240192011" lon="12.848911754642964"><ele>172.71428571428572</ele><time>2026-04-25T07:52:31.913Z</time></trkpt><trkpt lat="43.81202054844532" lon="12.848919418286814"><ele>173.57142857142856</ele><time>2026-04-25T07:52:36.913Z</time></trkpt><trkpt lat="43.812083165513734" lon="12.848950564766472"><ele>174.42857142857142</ele><time>2026-04-25T07:52:41.912Z</time></trkpt><trkpt lat="43.81214518731157" lon="12.848970031249246"><ele>175.28571428571428</ele><time>2026-04-25T07:52:46.912Z</time></trkpt><trkpt lat="43.81221242424847" lon="12.848995201736253"><ele>176.14285714285714</ele><time>2026-04-25T07:52:51.912Z</time></trkpt><trkpt lat="43.81228243228822" lon="12.849006583506359"><ele>177.0</ele><time>2026-04-25T07:52:57.912Z</time></trkpt><trkpt lat="43.812353950897624" lon="12.849020006665977"><ele>177.0</ele><time>2026-04-25T07:53:03.914Z</time></trkpt><trkpt lat="43.81241987727171" lon="12.849026939932621"><ele>177.0</ele><time>2026-04-25T07:53:08.914Z</time></trkpt><trkpt lat="43.812490152756645" lon="12.849034593366895"><ele>177.0</ele><time>2026-04-25T07:53:14.914Z</time></trkpt><trkpt lat="43.8125629025478" lon="12.849032809208946"><ele>177.0</ele><time>2026-04-25T07:53:19.914Z</time></trkpt><trkpt lat="43.81263672100092" lon="12.84903142470702"><ele>177.0</ele><time>2026-04-25T07:53:25.913Z</time></trkpt><trkpt lat="43.812699640950925" lon="12.849023455237077"><ele>177.0</ele><time>2026-04-25T07:53:29.913Z</time></trkpt><trkpt lat="43.81276673131866" lon="12.849038873370786"><ele>177.0</ele><time>2026-04-25T07:53:34.913Z</time></trkpt><trkpt lat="43.81283401920194" lon="12.849031540025658"><ele>177.71428571428572</ele><time>2026-04-25T07:53:39.913Z</time></trkpt><trkpt lat="43.81290134966992" lon="12.849037933478312"><ele>178.42857142857142</ele><time>2026-04-25T07:53:44.913Z</time></trkpt><trkpt lat="43.81297158023943" lon="12.849045095677354"><ele>179.14285714285714</ele><time>2026-04-25T07:53:49.913Z</time></trkpt><trkpt lat="43.81304099078107" lon="12.849052983612395"><ele>179.85714285714286</ele><time>2026-04-25T07:53:55.912Z</time></trkpt><trkpt lat="43.813107112705325" lon="12.849029662854074"><ele>180.57142857142856</ele><time>2026-04-25T07:54:02.912Z</time></trkpt><trkpt lat="43.81317681597427" lon="12.84901449206733"><ele>181.28571428571428</ele><time>2026-04-25T07:54:07.912Z</time></trkpt><trkpt lat="43.81324017075355" lon="12.848985023338228"><ele>182.0</ele><time>2026-04-25T07:54:11.912Z</time></trkpt><trkpt lat="43.81331086135665" lon="12.848979659459193"><ele>182.0</ele><time>2026-04-25T07:54:17.912Z</time></trkpt><trkpt lat="43.81337744850087" lon="12.848938446438838"><ele>182.0</ele><time>2026-04-25T07:54:22.912Z</time></trkpt><trkpt lat="43.813441334600675" lon="12.848916107297732"><ele>182.0</ele><time>2026-04-25T07:54:27.911Z</time></trkpt><trkpt lat="43.81350274234271" lon="12.848891814753303"><ele>182.0</ele><time>2026-04-25T07:54:33.911Z</time></trkpt><trkpt lat="43.813576020012285" lon="12.848866268983027"><ele>182.0</ele><time>2026-04-25T07:54:39.911Z</time></trkpt><trkpt lat="43.81363440741737" lon="12.84883038710554"><ele>182.0</ele><time>2026-04-25T07:54:44.911Z</time></trkpt><trkpt lat="43.81369537478718" lon="12.848784386934707"><ele>182.0</ele><time>2026-04-25T07:54:49.911Z</time></trkpt><trkpt lat="43.813763955644966" lon="12.84876143904739"><ele>183.14285714285714</ele><time>2026-04-25T07:54:55.91Z</time></trkpt><trkpt lat="43.81382799597779" lon="12.848720556964809"><ele>184.28571428571428</ele><time>2026-04-25T07:55:01.91Z</time></trkpt><trkpt lat="43.81389552978721" lon="12.84869452914782"><ele>185.42857142857144</ele><time>2026-04-25T07:55:07.912Z</time></trkpt><trkpt lat="43.813959337985864" lon="12.848680713671987"><ele>186.57142857142856</ele><time>2026-04-25T07:55:14.912Z</time></trkpt><trkpt lat="43.8140244448589" lon="12.848668442762222"><ele>187.71428571428572</ele><time>2026-04-25T07:55:20.912Z</time></trkpt><trkpt lat="43.814087899582454" lon="12.848703389637823"><ele>188.85714285714286</ele><time>2026-04-25T07:55:25.911Z</time></trkpt><trkpt lat="43.81414642268021" lon="12.848736717766766"><ele>190.0</ele><time>2026-04-25T07:55:28.911Z</time></trkpt><trkpt lat="43.81420143089998" lon="12.848790680307271"><ele>190.0</ele><time>2026-04-25T07:55:32.911Z</time></trkpt><trkpt lat="43.81425149721387" lon="12.848850875018561"><ele>190.0</ele><time>2026-04-25T07:55:38.911Z</time></trkpt><trkpt lat="43.814315922703244" lon="12.848904591866877"><ele>190.0</ele><time>2026-04-25T07:55:43.911Z</time></trkpt><trkpt lat="43.814376669063144" lon="12.848969643309934"><ele>190.0</ele><time>2026-04-25T07:55:49.911Z</time></trkpt><trkpt lat="43.81443539420241" lon="12.849031122456488"><ele>190.0</ele><time>2026-04-25T07:55:55.91Z</time></trkpt><trkpt lat="43.81449334530858" lon="12.84908397864415"><ele>190.0</ele><time>2026-04-25T07:56:00.91Z</time></trkpt><trkpt lat="43.814551909725246" lon="12.849116256160697"><ele>190.0</ele><time>2026-04-25T07:56:05.91Z</time></trkpt><trkpt lat="43.81461567301945" lon="12.849144915321721"><ele>189.71428571428572</ele><time>2026-04-25T07:56:10.91Z</time></trkpt><trkpt lat="43.81469052893546" lon="12.849151007158309"><ele>189.42857142857144</ele><time>2026-04-25T07:56:16.91Z</time></trkpt><trkpt lat="43.81476091175508" lon="12.849159987399684"><ele>189.14285714285714</ele><time>2026-04-25T07:56:21.911Z</time></trkpt><trkpt lat="43.814829082454125" lon="12.849143611738688"><ele>188.85714285714286</ele><time>2026-04-25T07:56:26.916Z</time></trkpt><trkpt lat="43.81490219956798" lon="12.849132818301527"><ele>188.57142857142856</ele><time>2026-04-25T07:56:31.92Z</time></trkpt><trkpt lat="43.81497082509049" lon="12.849124806368147"><ele>188.28571428571428</ele><time>2026-04-25T07:56:37.923Z</time></trkpt><trkpt lat="43.815034801577106" lon="12.849100648938238"><ele>188.0</ele><time>2026-04-25T07:56:41.925Z</time></trkpt><trkpt lat="43.81510310377181" lon="12.849075181894564"><ele>187.28571428571428</ele><time>2026-04-25T07:56:46.926Z</time></trkpt><trkpt lat="43.81517250361518" lon="12.849040928732332"><ele>186.57142857142856</ele><time>2026-04-25T07:56:51.927Z</time></trkpt><trkpt lat="43.815231589920245" lon="12.849007795837107"><ele>185.85714285714286</ele><time>2026-04-25T07:56:56.928Z</time></trkpt><trkpt lat="43.81530426110783" lon="12.848979742910998"><ele>185.14285714285714</ele><time>2026-04-25T07:57:01.928Z</time></trkpt><trkpt lat="43.81537151758968" lon="12.848950902981924"><ele>184.42857142857144</ele><time>2026-04-25T07:57:06.928Z</time></trkpt><trkpt lat="43.815434898415525" lon="12.84891855005768"><ele>183.71428571428572</ele><time>2026-04-25T07:57:11.929Z</time></trkpt><trkpt lat="43.81550266042331" lon="12.848908307275282"><ele>183.0</ele><time>2026-04-25T07:57:16.931Z</time></trkpt><trkpt lat="43.815570974070596" lon="12.848882542847655"><ele>183.0</ele><time>2026-04-25T07:57:22.931Z</time></trkpt><trkpt lat="43.81564160433693" lon="12.848867817363077"><ele>183.0</ele><time>2026-04-25T07:57:28.931Z</time></trkpt><trkpt lat="43.815712521184196" lon="12.84884631123053"><ele>183.0</ele><time>2026-04-25T07:57:33.931Z</time></trkpt><trkpt lat="43.81577682191084" lon="12.848852146355023"><ele>183.0</ele><time>2026-04-25T07:57:38.931Z</time></trkpt><trkpt lat="43.81585348409964" lon="12.848841627708447"><ele>183.0</ele><time>2026-04-25T07:57:45.93Z</time></trkpt><trkpt lat="43.815921590617116" lon="12.848863543330795"><ele>183.0</ele><time>2026-04-25T07:57:50.93Z</time></trkpt><trkpt lat="43.815989390429394" lon="12.848857558804392"><ele>183.0</ele><time>2026-04-25T07:57:54.93Z</time></trkpt><trkpt lat="43.816050914695026" lon="12.848833791115165"><ele>182.14285714285714</ele><time>2026-04-25T07:57:59.93Z</time></trkpt><trkpt lat="43.81613342727388" lon="12.848803748795987"><ele>181.28571428571428</ele><time>2026-04-25T07:58:05.93Z</time></trkpt><trkpt lat="43.816204089487265" lon="12.848776572206702"><ele>180.42857142857144</ele><time>2026-04-25T07:58:10.93Z</time></trkpt><trkpt lat="43.81626677366136" lon="12.848750166367324"><ele>179.57142857142856</ele><time>2026-04-25T07:58:14.93Z</time></trkpt><trkpt lat="43.81633254498613" lon="12.848727523700095"><ele>178.7142857142857</ele><time>2026-04-25T07:58:18.93Z</time></trkpt><trkpt lat="43.81640022056331" lon="12.848707414900916"><ele>177.85714285714286</ele><time>2026-04-25T07:58:23.929Z</time></trkpt><trkpt lat="43.816454805767876" lon="12.848654762699661"><ele>177.0</ele><time>2026-04-25T07:58:27.929Z</time></trkpt><trkpt lat="43.816515989435736" lon="12.848597687572935"><ele>177.0</ele><time>2026-04-25T07:58:32.929Z</time></trkpt><trkpt lat="43.81656991805651" lon="12.8485448960687"><ele>177.0</ele><time>2026-04-25T07:58:37.929Z</time></trkpt><trkpt lat="43.81662049039708" lon="12.848479269433586"><ele>177.0</ele><time>2026-04-25T07:58:41.929Z</time></trkpt></trkseg></trk></gpx>